UAL919 EGLL-KIAD
Flight info
| Callsign | UAL919 |
|---|---|
| Flight time | 7h 19m |
| Altitude | 32000 |
| Route | ULTIB T420 TNT UL28 PENIL M144 BAGSO DCT RINUS DCT MALOT/M084F330 NATE RIKAL/N0478F340 DCT TAFFY DCT KJOHN DCT ALB HYPER9 |
| Aircraft | B77W/H-SDE1E2E3FGHIJ2J3J4J5M1RWXY/LB1D1 |
Departure
| Time | 2026-05-05 12:12 |
|---|---|
| Airport | London Heathrow Airport (EGLL) |
Arrival
| Time | 2026-05-05 19:32 |
|---|---|
| Airport | Washington Dulles International Airport (KIAD) |
| Time | Latitude | Longitude | Altitude | Speed | Heading |
|---|---|---|---|---|---|
| 2026-05-05 11:37 | 51.47317 | -0.47491 | 95 ft | 0 kts | 270° |
| 2026-05-05 11:59 | 51.47317 | -0.47483 | 94 ft | 4 kts | 268° |
| 2026-05-05 12:00 | 51.47320 | -0.47440 | 94 ft | 4 kts | 257° |
| 2026-05-05 12:00 | 51.47328 | -0.47399 | 94 ft | 4 kts | 242° |
| 2026-05-05 12:00 | 51.47343 | -0.47366 | 91 ft | 4 kts | 211° |
| 2026-05-05 12:00 | 51.47356 | -0.47357 | 93 ft | 0 kts | 180° |
| 2026-05-05 12:02 | 51.47340 | -0.47357 | 94 ft | 7 kts | 180° |
| 2026-05-05 12:03 | 51.47252 | -0.47353 | 91 ft | 19 kts | 179° |
| 2026-05-05 12:03 | 51.47103 | -0.47351 | 91 ft | 22 kts | 179° |
| 2026-05-05 12:03 | 51.47002 | -0.47349 | 92 ft | 22 kts | 179° |
| 2026-05-05 12:03 | 51.46798 | -0.47350 | 92 ft | 22 kts | 187° |
| 2026-05-05 12:04 | 51.46744 | -0.47551 | 88 ft | 22 kts | 270° |
| 2026-05-05 12:04 | 51.46744 | -0.47799 | 92 ft | 22 kts | 270° |
| 2026-05-05 12:04 | 51.46743 | -0.48015 | 92 ft | 10 kts | 269° |
| 2026-05-05 12:04 | 51.46743 | -0.48065 | 94 ft | 0 kts | 270° |
| 2026-05-05 12:05 | 51.46743 | -0.48084 | 93 ft | 6 kts | 270° |
| 2026-05-05 12:05 | 51.46743 | -0.48201 | 96 ft | 15 kts | 270° |
| 2026-05-05 12:05 | 51.46743 | -0.48444 | 96 ft | 26 kts | 270° |
| 2026-05-05 12:06 | 51.46733 | -0.48706 | 97 ft | 18 kts | 237° |
| 2026-05-05 12:06 | 51.46627 | -0.48757 | 95 ft | 8 kts | 194° |
| 2026-05-05 12:06 | 51.46616 | -0.48761 | 97 ft | 0 kts | 194° |
| 2026-05-05 12:10 | 51.46537 | -0.48782 | 97 ft | 19 kts | 173° |
| 2026-05-05 12:11 | 51.46480 | -0.48623 | 93 ft | 13 kts | 90° |
| 2026-05-05 12:11 | 51.46480 | -0.48582 | 93 ft | 0 kts | 90° |
| 2026-05-05 12:11 | 51.46480 | -0.48560 | 93 ft | 10 kts | 90° |
| 2026-05-05 12:11 | 51.46480 | -0.48240 | 93 ft | 59 kts | 90° |
| 2026-05-05 12:12 | 51.46484 | -0.47145 | 94 ft | 135 kts | 90° |
| 2026-05-05 12:12 | 51.46490 | -0.45293 | 94 ft | 193 kts | 89° |
| 2026-05-05 12:12 | 51.46505 | -0.42946 | 358 ft | 217 kts | 87° |
| 2026-05-05 12:12 | 51.46617 | -0.40579 | 1297 ft | 206 kts | 72° |
| 2026-05-05 12:13 | 51.47333 | -0.38694 | 2053 ft | 196 kts | 41° |
| 2026-05-05 12:13 | 51.48317 | -0.37037 | 2361 ft | 214 kts | 50° |
| 2026-05-05 12:13 | 51.49255 | -0.35130 | 2744 ft | 228 kts | 50° |
| 2026-05-05 12:13 | 51.50300 | -0.33138 | 3453 ft | 230 kts | 49° |
| 2026-05-05 12:14 | 51.51320 | -0.31141 | 4119 ft | 239 kts | 50° |
| 2026-05-05 12:14 | 51.52342 | -0.28987 | 4715 ft | 247 kts | 58° |
| 2026-05-05 12:14 | 51.53100 | -0.26460 | 5327 ft | 254 kts | 69° |
| 2026-05-05 12:14 | 51.53684 | -0.23783 | 5900 ft | 256 kts | 70° |
| 2026-05-05 12:15 | 51.54279 | -0.21017 | 5989 ft | 267 kts | 67° |
| 2026-05-05 12:15 | 51.55341 | -0.18652 | 6020 ft | 264 kts | 36° |
| 2026-05-05 12:15 | 51.57069 | -0.17723 | 6024 ft | 268 kts | 358° |
| 2026-05-05 12:15 | 51.58832 | -0.18632 | 6046 ft | 272 kts | 324° |
| 2026-05-05 12:16 | 51.60191 | -0.20745 | 6483 ft | 273 kts | 315° |
| 2026-05-05 12:16 | 51.61632 | -0.22759 | 7114 ft | 273 kts | 328° |
| 2026-05-05 12:16 | 51.63213 | -0.24468 | 7656 ft | 276 kts | 321° |
| 2026-05-05 12:16 | 51.64742 | -0.26375 | 8250 ft | 280 kts | 324° |
| 2026-05-05 12:17 | 51.66353 | -0.28039 | 8966 ft | 279 kts | 329° |
| 2026-05-05 12:17 | 51.68036 | -0.29726 | 9663 ft | 281 kts | 328° |
| 2026-05-05 12:17 | 51.69689 | -0.31373 | 10319 ft | 285 kts | 329° |
| 2026-05-05 12:17 | 51.71424 | -0.33025 | 10856 ft | 290 kts | 329° |
| 2026-05-05 12:18 | 51.73192 | -0.34757 | 11126 ft | 308 kts | 328° |
| 2026-05-05 12:18 | 51.75079 | -0.36651 | 11320 ft | 331 kts | 329° |
| 2026-05-05 12:18 | 51.77127 | -0.38600 | 11518 ft | 354 kts | 330° |
| 2026-05-05 12:18 | 51.79308 | -0.40671 | 11869 ft | 370 kts | 330° |
| 2026-05-05 12:19 | 51.81545 | -0.42809 | 12602 ft | 376 kts | 329° |
| 2026-05-05 12:19 | 51.83815 | -0.45007 | 13238 ft | 385 kts | 329° |
| 2026-05-05 12:19 | 51.86082 | -0.47242 | 14019 ft | 389 kts | 328° |
| 2026-05-05 12:19 | 51.88411 | -0.49531 | 14809 ft | 392 kts | 329° |
| 2026-05-05 12:20 | 51.90757 | -0.51828 | 15568 ft | 397 kts | 328° |
| 2026-05-05 12:20 | 51.93135 | -0.54155 | 16292 ft | 402 kts | 328° |
| 2026-05-05 12:20 | 51.95544 | -0.56514 | 17014 ft | 407 kts | 328° |
| 2026-05-05 12:20 | 51.97981 | -0.58890 | 17746 ft | 412 kts | 328° |
| 2026-05-05 12:21 | 52.00455 | -0.61302 | 18440 ft | 416 kts | 328° |
| 2026-05-05 12:21 | 52.02945 | -0.63734 | 18968 ft | 419 kts | 327° |
| 2026-05-05 12:21 | 52.05453 | -0.66191 | 18970 ft | 422 kts | 327° |
| 2026-05-05 12:21 | 52.07969 | -0.68640 | 18977 ft | 421 kts | 328° |
| 2026-05-05 12:22 | 52.10473 | -0.71043 | 18974 ft | 420 kts | 328° |
| 2026-05-05 12:22 | 52.12988 | -0.73500 | 18973 ft | 419 kts | 327° |
| 2026-05-05 12:22 | 52.15464 | -0.75994 | 18968 ft | 420 kts | 326° |
| 2026-05-05 12:22 | 52.17953 | -0.78494 | 18972 ft | 420 kts | 327° |
| 2026-05-05 12:23 | 52.19602 | -0.80137 | 18975 ft | 420 kts | 327° |
| 2026-05-05 12:23 | 52.22934 | -0.83463 | 18979 ft | 420 kts | 327° |
| 2026-05-05 12:23 | 52.25433 | -0.85936 | 19042 ft | 422 kts | 328° |
| 2026-05-05 12:23 | 52.27958 | -0.88431 | 19661 ft | 426 kts | 327° |
| 2026-05-05 12:24 | 52.30491 | -0.90940 | 20378 ft | 427 kts | 327° |
| 2026-05-05 12:24 | 52.33045 | -0.93474 | 21028 ft | 431 kts | 327° |
| 2026-05-05 12:24 | 52.35623 | -0.96037 | 21608 ft | 436 kts | 327° |
| 2026-05-05 12:24 | 52.38227 | -0.98630 | 22184 ft | 441 kts | 326° |
| 2026-05-05 12:25 | 52.40858 | -1.01255 | 22789 ft | 445 kts | 327° |
| 2026-05-05 12:25 | 52.43472 | -1.03866 | 23375 ft | 448 kts | 327° |
| 2026-05-05 12:25 | 52.46150 | -1.06544 | 23896 ft | 452 kts | 327° |
| 2026-05-05 12:25 | 52.48844 | -1.09242 | 24380 ft | 456 kts | 326° |
| 2026-05-05 12:26 | 52.51554 | -1.11977 | 24876 ft | 459 kts | 326° |
| 2026-05-05 12:26 | 52.54276 | -1.14742 | 25405 ft | 461 kts | 326° |
| 2026-05-05 12:26 | 52.57010 | -1.17522 | 25912 ft | 463 kts | 326° |
| 2026-05-05 12:26 | 52.59758 | -1.20307 | 26354 ft | 467 kts | 326° |
| 2026-05-05 12:27 | 52.62535 | -1.23118 | 26788 ft | 470 kts | 326° |
| 2026-05-05 12:27 | 52.65326 | -1.25946 | 27214 ft | 473 kts | 326° |
| 2026-05-05 12:27 | 52.68144 | -1.28808 | 27652 ft | 476 kts | 326° |
| 2026-05-05 12:27 | 52.70974 | -1.31688 | 28070 ft | 479 kts | 326° |
| 2026-05-05 12:28 | 52.73820 | -1.34584 | 28446 ft | 482 kts | 326° |
| 2026-05-05 12:28 | 52.76682 | -1.37498 | 28835 ft | 485 kts | 327° |
| 2026-05-05 12:28 | 52.79553 | -1.40425 | 29249 ft | 486 kts | 327° |
| 2026-05-05 12:28 | 52.82429 | -1.43361 | 29754 ft | 485 kts | 327° |
| 2026-05-05 12:29 | 52.85293 | -1.46290 | 30274 ft | 483 kts | 327° |
| 2026-05-05 12:29 | 52.88149 | -1.49216 | 30699 ft | 482 kts | 327° |
| 2026-05-05 12:29 | 52.90999 | -1.52119 | 31069 ft | 481 kts | 329° |
| 2026-05-05 12:29 | 52.93887 | -1.54937 | 31275 ft | 483 kts | 328° |
| 2026-05-05 12:30 | 52.96732 | -1.57922 | 31633 ft | 482 kts | 327° |
| 2026-05-05 12:30 | 52.99549 | -1.60913 | 32050 ft | 481 kts | 327° |
| 2026-05-05 12:30 | 53.05250 | -1.66886 | 32003 ft | 488 kts | 329° |
| 2026-05-05 12:31 | 53.11069 | -1.72871 | 32028 ft | 493 kts | 328° |
| 2026-05-05 12:31 | 53.16865 | -1.78939 | 32017 ft | 492 kts | 328° |
| 2026-05-05 12:32 | 53.22392 | -1.85584 | 32024 ft | 490 kts | 315° |
| 2026-05-05 12:32 | 53.26475 | -1.94593 | 32015 ft | 487 kts | 296° |
| 2026-05-05 12:33 | 53.29419 | -2.04681 | 32013 ft | 485 kts | 294° |
| 2026-05-05 12:33 | 53.32328 | -2.14823 | 32035 ft | 483 kts | 295° |
| 2026-05-05 12:34 | 53.35260 | -2.24946 | 32018 ft | 483 kts | 292° |
| 2026-05-05 12:34 | 53.37771 | -2.35321 | 32047 ft | 479 kts | 288° |
| 2026-05-05 12:35 | 53.39681 | -2.46120 | 32036 ft | 487 kts | 284° |
| 2026-05-05 12:35 | 53.41580 | -2.56998 | 32022 ft | 486 kts | 286° |
| 2026-05-05 12:36 | 53.43616 | -2.67747 | 32031 ft | 482 kts | 285° |
| 2026-05-05 12:36 | 53.45612 | -2.78487 | 32029 ft | 482 kts | 287° |
| 2026-05-05 12:37 | 53.47651 | -2.89210 | 32056 ft | 483 kts | 287° |
| 2026-05-05 12:37 | 53.49637 | -2.99986 | 32044 ft | 484 kts | 286° |
| 2026-05-05 12:38 | 53.51614 | -3.10775 | 32053 ft | 483 kts | 286° |
| 2026-05-05 12:38 | 53.53549 | -3.21587 | 32043 ft | 483 kts | 285° |
| 2026-05-05 12:39 | 53.55521 | -3.32274 | 32059 ft | 480 kts | 286° |
| 2026-05-05 12:39 | 53.57407 | -3.43021 | 32053 ft | 479 kts | 286° |
| 2026-05-05 12:40 | 53.59348 | -3.53703 | 32051 ft | 478 kts | 284° |
| 2026-05-05 12:40 | 53.61116 | -3.64581 | 32055 ft | 484 kts | 283° |
| 2026-05-05 12:41 | 53.62108 | -3.75758 | 32066 ft | 483 kts | 272° |
| 2026-05-05 12:41 | 53.62489 | -3.87051 | 32059 ft | 483 kts | 273° |
| 2026-05-05 12:42 | 53.62952 | -3.98332 | 32063 ft | 482 kts | 273° |
| 2026-05-05 12:42 | 53.63399 | -4.09588 | 32056 ft | 481 kts | 273° |
| 2026-05-05 12:43 | 53.63822 | -4.20829 | 32074 ft | 480 kts | 272° |
| 2026-05-05 12:43 | 53.64235 | -4.32030 | 32061 ft | 478 kts | 272° |
| 2026-05-05 12:44 | 53.64632 | -4.43190 | 32068 ft | 477 kts | 272° |
| 2026-05-05 12:44 | 53.65017 | -4.54333 | 32064 ft | 476 kts | 272° |
| 2026-05-05 12:45 | 53.65391 | -4.65390 | 32081 ft | 476 kts | 272° |
| 2026-05-05 12:45 | 53.65760 | -4.76507 | 32076 ft | 474 kts | 271° |
| 2026-05-05 12:46 | 53.66117 | -4.87573 | 32075 ft | 472 kts | 271° |
| 2026-05-05 12:46 | 53.66482 | -4.98598 | 32077 ft | 470 kts | 271° |
| 2026-05-05 12:47 | 53.66841 | -5.09604 | 32081 ft | 470 kts | 271° |
| 2026-05-05 12:47 | 53.67179 | -5.20607 | 32085 ft | 470 kts | 271° |
| 2026-05-05 12:48 | 53.67493 | -5.31613 | 32085 ft | 470 kts | 271° |
| 2026-05-05 12:48 | 53.67801 | -5.42639 | 32086 ft | 471 kts | 271° |
| 2026-05-05 12:49 | 53.68014 | -5.53675 | 32079 ft | 470 kts | 268° |
| 2026-05-05 12:49 | 53.67920 | -5.64701 | 32083 ft | 470 kts | 268° |
| 2026-05-05 12:50 | 53.67787 | -5.75736 | 32085 ft | 471 kts | 268° |
| 2026-05-05 12:50 | 53.67659 | -5.86779 | 32081 ft | 471 kts | 268° |
| 2026-05-05 12:51 | 53.67534 | -5.97826 | 32079 ft | 471 kts | 268° |
| 2026-05-05 12:51 | 53.67403 | -6.08791 | 32075 ft | 471 kts | 268° |
| 2026-05-05 12:52 | 53.67261 | -6.19826 | 32078 ft | 471 kts | 268° |
| 2026-05-05 12:52 | 53.67126 | -6.30859 | 32045 ft | 471 kts | 269° |
| 2026-05-05 12:53 | 53.66981 | -6.41892 | 32076 ft | 471 kts | 267° |
| 2026-05-05 12:53 | 53.66761 | -6.52959 | 32071 ft | 473 kts | 268° |
| 2026-05-05 12:54 | 53.66481 | -6.69642 | 32076 ft | 475 kts | 268° |
| 2026-05-05 12:55 | 53.66299 | -6.80783 | 32070 ft | 476 kts | 269° |
| 2026-05-05 12:55 | 53.66099 | -6.91935 | 32070 ft | 476 kts | 268° |
| 2026-05-05 12:56 | 53.65856 | -7.03091 | 32068 ft | 477 kts | 268° |
| 2026-05-05 12:56 | 53.65657 | -7.12374 | 32073 ft | 477 kts | 268° |
| 2026-05-05 12:57 | 53.65374 | -7.25428 | 32067 ft | 477 kts | 268° |
| 2026-05-05 12:57 | 53.65122 | -7.36588 | 32072 ft | 476 kts | 268° |
| 2026-05-05 12:58 | 53.64858 | -7.47741 | 32068 ft | 476 kts | 268° |
| 2026-05-05 12:58 | 53.64586 | -7.58876 | 32071 ft | 475 kts | 268° |
| 2026-05-05 12:59 | 53.64346 | -7.68121 | 32070 ft | 475 kts | 267° |
| 2026-05-05 12:59 | 53.63783 | -7.79209 | 32076 ft | 475 kts | 264° |
| 2026-05-05 13:00 | 53.62724 | -7.95800 | 32076 ft | 475 kts | 264° |
| 2026-05-05 13:01 | 53.61377 | -8.17934 | 32081 ft | 475 kts | 264° |
| 2026-05-05 13:01 | 53.60705 | -8.28996 | 32078 ft | 475 kts | 264° |
| 2026-05-05 13:02 | 53.60023 | -8.40058 | 32083 ft | 475 kts | 264° |
| 2026-05-05 13:02 | 53.59328 | -8.51119 | 32084 ft | 475 kts | 264° |
| 2026-05-05 13:03 | 53.58623 | -8.62177 | 32091 ft | 475 kts | 264° |
| 2026-05-05 13:03 | 53.57913 | -8.73158 | 32095 ft | 475 kts | 264° |
| 2026-05-05 13:04 | 53.57188 | -8.84205 | 32093 ft | 475 kts | 264° |
| 2026-05-05 13:04 | 53.56451 | -8.95259 | 32101 ft | 475 kts | 264° |
| 2026-05-05 13:05 | 53.55706 | -9.06301 | 32101 ft | 475 kts | 264° |
| 2026-05-05 13:05 | 53.54950 | -9.17335 | 32105 ft | 475 kts | 264° |
| 2026-05-05 13:06 | 53.54184 | -9.28369 | 32102 ft | 475 kts | 264° |
| 2026-05-05 13:06 | 53.53452 | -9.39390 | 32128 ft | 472 kts | 265° |
| 2026-05-05 13:07 | 53.52790 | -9.50355 | 32105 ft | 472 kts | 263° |
| 2026-05-05 13:07 | 53.51905 | -9.61309 | 32124 ft | 474 kts | 262° |
| 2026-05-05 13:08 | 53.51038 | -9.72225 | 32129 ft | 475 kts | 263° |
| 2026-05-05 13:08 | 53.50208 | -9.83241 | 32132 ft | 475 kts | 263° |
| 2026-05-05 13:09 | 53.49385 | -9.94259 | 32130 ft | 475 kts | 263° |
| 2026-05-05 13:09 | 53.48555 | -10.05254 | 32133 ft | 474 kts | 263° |
| 2026-05-05 13:10 | 53.47712 | -10.16228 | 32134 ft | 474 kts | 263° |
| 2026-05-05 13:10 | 53.46859 | -10.27175 | 32145 ft | 473 kts | 263° |
| 2026-05-05 13:11 | 53.45996 | -10.38110 | 32149 ft | 472 kts | 264° |
| 2026-05-05 13:11 | 53.45244 | -10.48986 | 32141 ft | 467 kts | 264° |
| 2026-05-05 13:12 | 53.44338 | -10.59839 | 32157 ft | 471 kts | 263° |
| 2026-05-05 13:12 | 53.43374 | -10.70745 | 32156 ft | 474 kts | 263° |
| 2026-05-05 13:13 | 53.42445 | -10.81717 | 32160 ft | 476 kts | 263° |
| 2026-05-05 13:13 | 53.41529 | -10.92701 | 32154 ft | 476 kts | 263° |
| 2026-05-05 13:14 | 53.40605 | -11.03678 | 32156 ft | 475 kts | 263° |
| 2026-05-05 13:14 | 53.39672 | -11.14617 | 32158 ft | 474 kts | 263° |
| 2026-05-05 13:15 | 53.38735 | -11.25457 | 32159 ft | 473 kts | 263° |
| 2026-05-05 13:15 | 53.37784 | -11.36342 | 32161 ft | 472 kts | 263° |
| 2026-05-05 13:16 | 53.36824 | -11.47202 | 32164 ft | 471 kts | 263° |
| 2026-05-05 13:16 | 53.35856 | -11.58051 | 32166 ft | 471 kts | 263° |
| 2026-05-05 13:17 | 53.34878 | -11.68888 | 32169 ft | 471 kts | 263° |
| 2026-05-05 13:17 | 53.33890 | -11.79723 | 32172 ft | 471 kts | 262° |
| 2026-05-05 13:18 | 53.32891 | -11.90560 | 32172 ft | 471 kts | 262° |
| 2026-05-05 13:18 | 53.31883 | -12.01393 | 32173 ft | 471 kts | 262° |
| 2026-05-05 13:19 | 53.30866 | -12.12206 | 32174 ft | 471 kts | 262° |
| 2026-05-05 13:19 | 53.29839 | -12.23020 | 32179 ft | 471 kts | 262° |
| 2026-05-05 13:20 | 53.28803 | -12.33819 | 32180 ft | 471 kts | 262° |
| 2026-05-05 13:20 | 53.27757 | -12.44614 | 32174 ft | 470 kts | 262° |
| 2026-05-05 13:21 | 53.26703 | -12.55390 | 32183 ft | 470 kts | 262° |
| 2026-05-05 13:21 | 53.25639 | -12.66161 | 32187 ft | 470 kts | 262° |
| 2026-05-05 13:22 | 53.24566 | -12.76923 | 32187 ft | 470 kts | 261° |
| 2026-05-05 13:22 | 53.23482 | -12.87683 | 32189 ft | 470 kts | 261° |
| 2026-05-05 13:23 | 53.22390 | -12.98428 | 32188 ft | 469 kts | 261° |
| 2026-05-05 13:23 | 53.21290 | -13.09153 | 32193 ft | 469 kts | 261° |
| 2026-05-05 13:24 | 53.20181 | -13.19865 | 32194 ft | 468 kts | 261° |
| 2026-05-05 13:24 | 53.19063 | -13.30566 | 32193 ft | 468 kts | 261° |
| 2026-05-05 13:25 | 53.17935 | -13.41259 | 32189 ft | 468 kts | 261° |
| 2026-05-05 13:25 | 53.16800 | -13.51936 | 32196 ft | 468 kts | 261° |
| 2026-05-05 13:26 | 53.15654 | -13.62608 | 32196 ft | 468 kts | 261° |
| 2026-05-05 13:26 | 53.14507 | -13.73202 | 32200 ft | 468 kts | 261° |
| 2026-05-05 13:27 | 53.13342 | -13.83863 | 32199 ft | 468 kts | 260° |
| 2026-05-05 13:27 | 53.12168 | -13.94527 | 32206 ft | 468 kts | 260° |
| 2026-05-05 13:28 | 53.10985 | -14.05167 | 32203 ft | 467 kts | 260° |
| 2026-05-05 13:28 | 53.09793 | -14.15802 | 32200 ft | 467 kts | 260° |
| 2026-05-05 13:29 | 53.08593 | -14.26418 | 32208 ft | 467 kts | 260° |
| 2026-05-05 13:29 | 53.07386 | -14.37012 | 32207 ft | 466 kts | 260° |
| 2026-05-05 13:30 | 53.06168 | -14.47602 | 32205 ft | 466 kts | 260° |
| 2026-05-05 13:30 | 53.04944 | -14.58168 | 32212 ft | 466 kts | 260° |
| 2026-05-05 13:31 | 53.03710 | -14.68731 | 32212 ft | 466 kts | 259° |
| 2026-05-05 13:31 | 53.02468 | -14.79286 | 32215 ft | 466 kts | 259° |
| 2026-05-05 13:32 | 53.01217 | -14.89831 | 32214 ft | 465 kts | 259° |
| 2026-05-05 13:32 | 53.00866 | -15.00475 | 32217 ft | 463 kts | 276° |
| 2026-05-05 13:33 | 53.02297 | -15.10881 | 32219 ft | 464 kts | 289° |
| 2026-05-05 13:33 | 53.04601 | -15.20900 | 32217 ft | 465 kts | 290° |
| 2026-05-05 13:34 | 53.06904 | -15.30943 | 32223 ft | 465 kts | 289° |
| 2026-05-05 13:34 | 53.09167 | -15.41015 | 32220 ft | 465 kts | 289° |
| 2026-05-05 13:35 | 53.11390 | -15.51055 | 32222 ft | 465 kts | 289° |
| 2026-05-05 13:35 | 53.13614 | -15.61171 | 32221 ft | 465 kts | 289° |
| 2026-05-05 13:36 | 53.15829 | -15.71292 | 32223 ft | 465 kts | 289° |
| 2026-05-05 13:36 | 53.18033 | -15.81409 | 32223 ft | 464 kts | 288° |
| 2026-05-05 13:37 | 53.20229 | -15.91539 | 32232 ft | 464 kts | 288° |
| 2026-05-05 13:37 | 53.22415 | -16.01669 | 32224 ft | 464 kts | 288° |
| 2026-05-05 13:38 | 53.24590 | -16.11802 | 32226 ft | 463 kts | 288° |
| 2026-05-05 13:38 | 53.26754 | -16.21933 | 32228 ft | 463 kts | 288° |
| 2026-05-05 13:39 | 53.28910 | -16.32073 | 32229 ft | 463 kts | 288° |
| 2026-05-05 13:39 | 53.31057 | -16.42225 | 32228 ft | 463 kts | 288° |
| 2026-05-05 13:40 | 53.33194 | -16.52383 | 32229 ft | 463 kts | 288° |
| 2026-05-05 13:40 | 53.35325 | -16.62558 | 32236 ft | 464 kts | 288° |
| 2026-05-05 13:41 | 53.37449 | -16.72755 | 32229 ft | 464 kts | 288° |
| 2026-05-05 13:41 | 53.39565 | -16.82966 | 32232 ft | 464 kts | 288° |
| 2026-05-05 13:42 | 53.41673 | -16.93188 | 32231 ft | 464 kts | 287° |
| 2026-05-05 13:42 | 53.43773 | -17.03425 | 32237 ft | 464 kts | 287° |
| 2026-05-05 13:43 | 53.45863 | -17.13666 | 32233 ft | 464 kts | 287° |
| 2026-05-05 13:43 | 53.47932 | -17.23859 | 32235 ft | 464 kts | 287° |
| 2026-05-05 13:44 | 53.50006 | -17.34125 | 32243 ft | 465 kts | 287° |
| 2026-05-05 13:44 | 53.52074 | -17.44418 | 32237 ft | 465 kts | 287° |
| 2026-05-05 13:45 | 53.54136 | -17.54735 | 32239 ft | 466 kts | 287° |
| 2026-05-05 13:45 | 53.55845 | -17.63326 | 32240 ft | 466 kts | 287° |
| 2026-05-05 13:46 | 53.58240 | -17.75429 | 32242 ft | 466 kts | 287° |
| 2026-05-05 13:46 | 53.60278 | -17.85790 | 32243 ft | 466 kts | 287° |
| 2026-05-05 13:47 | 53.62308 | -17.96165 | 32237 ft | 467 kts | 287° |
| 2026-05-05 13:47 | 53.64331 | -18.06560 | 32261 ft | 467 kts | 287° |
| 2026-05-05 13:48 | 53.66333 | -18.16908 | 32247 ft | 468 kts | 286° |
| 2026-05-05 13:48 | 53.68344 | -18.27353 | 32246 ft | 468 kts | 286° |
| 2026-05-05 13:49 | 53.70346 | -18.37813 | 32245 ft | 469 kts | 286° |
| 2026-05-05 13:49 | 53.72342 | -18.48295 | 32246 ft | 469 kts | 286° |
| 2026-05-05 13:50 | 53.74328 | -18.58781 | 32238 ft | 469 kts | 286° |
| 2026-05-05 13:50 | 53.75973 | -18.67516 | 32250 ft | 469 kts | 286° |
| 2026-05-05 13:51 | 53.77945 | -18.78040 | 32246 ft | 470 kts | 286° |
| 2026-05-05 13:51 | 53.79911 | -18.88586 | 32253 ft | 471 kts | 286° |
| 2026-05-05 13:52 | 53.81869 | -18.99155 | 32246 ft | 471 kts | 286° |
| 2026-05-05 13:52 | 53.83820 | -19.09742 | 32250 ft | 471 kts | 286° |
| 2026-05-05 13:53 | 53.85761 | -19.20337 | 32247 ft | 471 kts | 286° |
| 2026-05-05 13:53 | 53.87693 | -19.30945 | 32257 ft | 472 kts | 286° |
| 2026-05-05 13:54 | 53.89619 | -19.41579 | 32249 ft | 472 kts | 285° |
| 2026-05-05 13:54 | 53.91537 | -19.52228 | 32254 ft | 472 kts | 285° |
| 2026-05-05 13:55 | 53.93430 | -19.62893 | 32257 ft | 473 kts | 286° |
| 2026-05-05 13:55 | 53.95331 | -19.73501 | 32256 ft | 473 kts | 286° |
| 2026-05-05 13:56 | 53.96922 | -19.82464 | 32254 ft | 473 kts | 286° |
| 2026-05-05 13:56 | 53.99112 | -19.94933 | 32256 ft | 474 kts | 285° |
| 2026-05-05 13:57 | 54.00334 | -20.05935 | 32259 ft | 474 kts | 274° |
| 2026-05-05 13:57 | 54.00744 | -20.17119 | 32260 ft | 475 kts | 273° |
| 2026-05-05 13:58 | 54.01150 | -20.28328 | 32265 ft | 475 kts | 273° |
| 2026-05-05 13:58 | 54.01571 | -20.39544 | 32264 ft | 475 kts | 273° |
| 2026-05-05 13:59 | 54.02360 | -20.56308 | 32249 ft | 474 kts | 275° |
| 2026-05-05 14:00 | 54.02879 | -20.73312 | 32271 ft | 483 kts | 273° |
| 2026-05-05 14:00 | 54.03217 | -20.84698 | 32265 ft | 481 kts | 274° |
| 2026-05-05 14:01 | 54.03592 | -20.96052 | 32264 ft | 481 kts | 274° |
| 2026-05-05 14:01 | 54.04054 | -21.07384 | 32242 ft | 479 kts | 276° |
| 2026-05-05 14:02 | 54.04460 | -21.18711 | 32260 ft | 481 kts | 274° |
| 2026-05-05 14:02 | 54.04733 | -21.30098 | 32269 ft | 482 kts | 274° |
| 2026-05-05 14:03 | 54.05039 | -21.41515 | 32272 ft | 483 kts | 274° |
| 2026-05-05 14:03 | 54.05369 | -21.52945 | 32268 ft | 484 kts | 274° |
| 2026-05-05 14:04 | 54.05695 | -21.64310 | 32258 ft | 484 kts | 274° |
| 2026-05-05 14:04 | 54.06012 | -21.75744 | 32266 ft | 484 kts | 274° |
| 2026-05-05 14:05 | 54.06316 | -21.87184 | 32274 ft | 483 kts | 274° |
| 2026-05-05 14:05 | 54.06607 | -21.98612 | 32273 ft | 483 kts | 274° |
| 2026-05-05 14:06 | 54.06887 | -22.10034 | 32274 ft | 483 kts | 274° |
| 2026-05-05 14:06 | 54.07157 | -22.21467 | 32274 ft | 483 kts | 274° |
| 2026-05-05 14:07 | 54.07415 | -22.32888 | 32276 ft | 483 kts | 274° |
| 2026-05-05 14:07 | 54.07663 | -22.44313 | 32277 ft | 483 kts | 274° |
| 2026-05-05 14:08 | 54.07900 | -22.55737 | 32274 ft | 483 kts | 274° |
| 2026-05-05 14:08 | 54.08127 | -22.67163 | 32279 ft | 483 kts | 274° |
| 2026-05-05 14:09 | 54.08342 | -22.78591 | 32268 ft | 483 kts | 274° |
| 2026-05-05 14:09 | 54.08546 | -22.90009 | 32277 ft | 482 kts | 274° |
| 2026-05-05 14:10 | 54.08740 | -23.01422 | 32276 ft | 482 kts | 274° |
| 2026-05-05 14:10 | 54.08922 | -23.12836 | 32281 ft | 482 kts | 274° |
| 2026-05-05 14:11 | 54.09094 | -23.24240 | 32285 ft | 482 kts | 274° |
| 2026-05-05 14:11 | 54.09254 | -23.35562 | 32269 ft | 481 kts | 274° |
| 2026-05-05 14:12 | 54.09403 | -23.46953 | 32286 ft | 481 kts | 274° |
| 2026-05-05 14:12 | 54.09543 | -23.58345 | 32289 ft | 481 kts | 274° |
| 2026-05-05 14:13 | 54.09672 | -23.69736 | 32286 ft | 481 kts | 273° |
| 2026-05-05 14:13 | 54.09790 | -23.81131 | 32285 ft | 481 kts | 273° |
| 2026-05-05 14:14 | 54.09896 | -23.92529 | 32271 ft | 481 kts | 273° |
| 2026-05-05 14:14 | 54.09993 | -24.03923 | 32288 ft | 481 kts | 273° |
| 2026-05-05 14:15 | 54.10078 | -24.15317 | 32291 ft | 481 kts | 273° |
| 2026-05-05 14:15 | 54.10153 | -24.26713 | 32286 ft | 481 kts | 274° |
| 2026-05-05 14:16 | 54.10217 | -24.38133 | 32294 ft | 483 kts | 274° |
| 2026-05-05 14:16 | 54.10271 | -24.49586 | 32275 ft | 484 kts | 274° |
| 2026-05-05 14:17 | 54.10313 | -24.61068 | 32292 ft | 485 kts | 274° |
| 2026-05-05 14:17 | 54.10345 | -24.72573 | 32302 ft | 486 kts | 274° |
| 2026-05-05 14:18 | 54.10366 | -24.84109 | 32291 ft | 487 kts | 274° |
| 2026-05-05 14:18 | 54.10375 | -24.93702 | 32292 ft | 487 kts | 273° |
| 2026-05-05 14:19 | 54.10374 | -25.07199 | 32279 ft | 487 kts | 274° |
| 2026-05-05 14:19 | 54.10361 | -25.18729 | 32299 ft | 487 kts | 274° |
| 2026-05-05 14:20 | 54.10338 | -25.30272 | 32300 ft | 487 kts | 274° |
| 2026-05-05 14:20 | 54.10304 | -25.41740 | 32299 ft | 488 kts | 274° |
| 2026-05-05 14:21 | 54.10259 | -25.53302 | 32290 ft | 488 kts | 274° |
| 2026-05-05 14:21 | 54.10303 | -25.64785 | 32330 ft | 485 kts | 272° |
| 2026-05-05 14:22 | 54.10075 | -25.76408 | 32310 ft | 494 kts | 273° |
| 2026-05-05 14:22 | 54.10002 | -25.88096 | 32305 ft | 493 kts | 274° |
| 2026-05-05 14:23 | 54.09947 | -25.99753 | 32302 ft | 492 kts | 274° |
| 2026-05-05 14:23 | 54.09862 | -26.11399 | 32304 ft | 491 kts | 274° |
| 2026-05-05 14:24 | 54.09752 | -26.23025 | 32304 ft | 491 kts | 274° |
| 2026-05-05 14:24 | 54.09626 | -26.34634 | 32302 ft | 490 kts | 274° |
| 2026-05-05 14:25 | 54.09490 | -26.46240 | 32307 ft | 490 kts | 273° |
| 2026-05-05 14:25 | 54.09343 | -26.57855 | 32311 ft | 490 kts | 273° |
| 2026-05-05 14:26 | 54.09186 | -26.69473 | 32310 ft | 491 kts | 273° |
| 2026-05-05 14:26 | 54.09017 | -26.81102 | 32300 ft | 492 kts | 274° |
| 2026-05-05 14:27 | 54.08837 | -26.92740 | 32310 ft | 492 kts | 273° |
| 2026-05-05 14:27 | 54.08711 | -27.00468 | 32311 ft | 493 kts | 273° |
| 2026-05-05 14:28 | 54.08443 | -27.16008 | 32313 ft | 494 kts | 273° |
| 2026-05-05 14:28 | 54.08227 | -27.27711 | 32313 ft | 494 kts | 273° |
| 2026-05-05 14:29 | 54.08000 | -27.39409 | 32318 ft | 494 kts | 273° |
| 2026-05-05 14:29 | 54.07762 | -27.51089 | 32310 ft | 493 kts | 273° |
| 2026-05-05 14:30 | 54.07514 | -27.62753 | 32313 ft | 493 kts | 273° |
| 2026-05-05 14:30 | 54.07254 | -27.74413 | 32316 ft | 493 kts | 272° |
| 2026-05-05 14:31 | 54.06983 | -27.86073 | 32313 ft | 493 kts | 272° |
| 2026-05-05 14:31 | 54.06701 | -27.97730 | 32313 ft | 493 kts | 272° |
| 2026-05-05 14:32 | 54.06407 | -28.09395 | 32314 ft | 493 kts | 272° |
| 2026-05-05 14:32 | 54.06102 | -28.21058 | 32320 ft | 493 kts | 272° |
| 2026-05-05 14:33 | 54.05786 | -28.32724 | 32321 ft | 494 kts | 272° |
| 2026-05-05 14:33 | 54.05459 | -28.44329 | 32317 ft | 494 kts | 272° |
| 2026-05-05 14:34 | 54.05117 | -28.56087 | 32280 ft | 494 kts | 272° |
| 2026-05-05 14:34 | 54.04767 | -28.67742 | 32310 ft | 493 kts | 271° |
| 2026-05-05 14:35 | 54.04406 | -28.79383 | 32321 ft | 493 kts | 271° |
| 2026-05-05 14:35 | 54.04036 | -28.90945 | 32320 ft | 492 kts | 271° |
| 2026-05-05 14:36 | 54.03653 | -29.02569 | 32322 ft | 492 kts | 271° |
| 2026-05-05 14:36 | 54.03259 | -29.14192 | 32287 ft | 492 kts | 271° |
| 2026-05-05 14:37 | 54.02854 | -29.25797 | 32309 ft | 491 kts | 270° |
| 2026-05-05 14:37 | 54.02439 | -29.37365 | 32320 ft | 490 kts | 270° |
| 2026-05-05 14:38 | 54.02013 | -29.48920 | 32317 ft | 489 kts | 270° |
| 2026-05-05 14:38 | 54.01577 | -29.60471 | 32314 ft | 489 kts | 270° |
| 2026-05-05 14:39 | 54.01130 | -29.72007 | 32281 ft | 489 kts | 269° |
| 2026-05-05 14:39 | 54.00795 | -29.83498 | 32296 ft | 481 kts | 271° |
| 2026-05-05 14:40 | 54.00346 | -29.92963 | 32323 ft | 485 kts | 268° |
| 2026-05-05 14:40 | 54.00053 | -30.04426 | 32304 ft | 485 kts | 277° |
| 2026-05-05 14:41 | 54.00558 | -30.15868 | 32312 ft | 487 kts | 277° |
| 2026-05-05 14:41 | 54.01079 | -30.27354 | 32310 ft | 487 kts | 277° |
| 2026-05-05 14:42 | 54.01553 | -30.38837 | 32285 ft | 486 kts | 276° |
| 2026-05-05 14:42 | 54.01975 | -30.50288 | 32301 ft | 485 kts | 276° |
| 2026-05-05 14:43 | 54.02400 | -30.61735 | 32313 ft | 485 kts | 276° |
| 2026-05-05 14:43 | 54.02817 | -30.73178 | 32299 ft | 484 kts | 275° |
| 2026-05-05 14:44 | 54.03217 | -30.84610 | 32303 ft | 485 kts | 275° |
| 2026-05-05 14:44 | 54.03607 | -30.96059 | 32300 ft | 485 kts | 275° |
| 2026-05-05 14:45 | 54.03983 | -31.07432 | 32289 ft | 485 kts | 275° |
| 2026-05-05 14:45 | 54.04351 | -31.18890 | 32305 ft | 485 kts | 275° |
| 2026-05-05 14:46 | 54.04709 | -31.30365 | 32285 ft | 486 kts | 274° |
| 2026-05-05 14:46 | 54.05056 | -31.41855 | 32293 ft | 487 kts | 274° |
| 2026-05-05 14:47 | 54.05393 | -31.53367 | 32295 ft | 487 kts | 274° |
| 2026-05-05 14:47 | 54.05674 | -31.64873 | 32290 ft | 485 kts | 271° |
| 2026-05-05 14:48 | 54.06026 | -31.76347 | 32291 ft | 486 kts | 274° |
| 2026-05-05 14:48 | 54.06363 | -31.87840 | 32275 ft | 486 kts | 274° |
| 2026-05-05 14:49 | 54.06644 | -31.99352 | 32281 ft | 487 kts | 273° |
| 2026-05-05 14:49 | 54.06913 | -32.10867 | 32275 ft | 487 kts | 273° |
| 2026-05-05 14:50 | 54.07178 | -32.22296 | 32288 ft | 486 kts | 272° |
| 2026-05-05 14:50 | 54.07536 | -32.33768 | 32282 ft | 484 kts | 274° |
| 2026-05-05 14:51 | 54.07829 | -32.45315 | 32289 ft | 493 kts | 271° |
| 2026-05-05 14:51 | 54.07974 | -32.56980 | 32256 ft | 491 kts | 271° |
| 2026-05-05 14:52 | 54.08154 | -32.68589 | 32260 ft | 490 kts | 271° |
| 2026-05-05 14:52 | 54.08364 | -32.80167 | 32255 ft | 489 kts | 271° |
| 2026-05-05 14:53 | 54.08575 | -32.91730 | 32257 ft | 489 kts | 271° |
| 2026-05-05 14:53 | 54.08864 | -33.03320 | 32250 ft | 492 kts | 271° |
| 2026-05-05 14:54 | 54.09012 | -33.15002 | 32254 ft | 495 kts | 269° |
| 2026-05-05 14:54 | 54.09232 | -33.26737 | 32253 ft | 493 kts | 272° |
| 2026-05-05 14:55 | 54.09423 | -33.38421 | 32249 ft | 495 kts | 269° |
| 2026-05-05 14:55 | 54.09431 | -33.50048 | 32246 ft | 495 kts | 269° |
| 2026-05-05 14:56 | 54.09576 | -33.61782 | 32245 ft | 494 kts | 272° |
| 2026-05-05 14:56 | 54.09795 | -33.73530 | 32249 ft | 500 kts | 269° |
| 2026-05-05 14:57 | 54.09702 | -33.85383 | 32234 ft | 502 kts | 269° |
| 2026-05-05 14:57 | 54.09914 | -33.97294 | 32255 ft | 502 kts | 271° |
| 2026-05-05 14:58 | 54.10201 | -34.09117 | 32249 ft | 500 kts | 268° |
| 2026-05-05 14:58 | 54.10183 | -34.21003 | 32240 ft | 503 kts | 268° |
| 2026-05-05 14:59 | 54.10183 | -34.32950 | 32226 ft | 504 kts | 268° |
| 2026-05-05 14:59 | 54.10235 | -34.44899 | 32213 ft | 504 kts | 268° |
| 2026-05-05 15:00 | 54.10284 | -34.54811 | 32219 ft | 503 kts | 269° |
| 2026-05-05 15:00 | 54.10337 | -34.68713 | 32205 ft | 501 kts | 268° |
| 2026-05-05 15:01 | 54.10363 | -34.80587 | 32209 ft | 500 kts | 268° |
| 2026-05-05 15:01 | 54.10376 | -34.92456 | 32198 ft | 502 kts | 267° |
| 2026-05-05 15:02 | 54.10376 | -35.04380 | 32199 ft | 505 kts | 267° |
| 2026-05-05 15:02 | 54.10365 | -35.16375 | 32185 ft | 507 kts | 266° |
| 2026-05-05 15:03 | 54.10343 | -35.28409 | 32184 ft | 508 kts | 266° |
| 2026-05-05 15:03 | 54.10309 | -35.40454 | 32178 ft | 509 kts | 266° |
| 2026-05-05 15:04 | 54.10264 | -35.52440 | 32189 ft | 510 kts | 266° |
| 2026-05-05 15:04 | 54.10205 | -35.64523 | 32167 ft | 511 kts | 266° |
| 2026-05-05 15:05 | 54.10094 | -35.82678 | 32169 ft | 511 kts | 265° |
| 2026-05-05 15:06 | 54.10005 | -35.94803 | 32185 ft | 513 kts | 265° |
| 2026-05-05 15:06 | 54.09955 | -36.00877 | 32487 ft | 512 kts | 265° |
| 2026-05-05 15:06 | 54.09904 | -36.06931 | 32969 ft | 509 kts | 265° |
| 2026-05-05 15:06 | 54.09851 | -36.12925 | 33486 ft | 506 kts | 265° |
| 2026-05-05 15:07 | 54.09793 | -36.18940 | 33640 ft | 510 kts | 264° |
| 2026-05-05 15:07 | 54.09730 | -36.24995 | 33891 ft | 512 kts | 264° |
| 2026-05-05 15:07 | 54.09665 | -36.31062 | 34106 ft | 514 kts | 264° |
| 2026-05-05 15:08 | 54.09528 | -36.43246 | 34118 ft | 513 kts | 264° |
| 2026-05-05 15:08 | 54.09380 | -36.55327 | 34129 ft | 509 kts | 264° |
| 2026-05-05 15:09 | 54.09219 | -36.67346 | 34123 ft | 507 kts | 264° |
| 2026-05-05 15:09 | 54.09046 | -36.79354 | 34164 ft | 508 kts | 263° |
| 2026-05-05 15:10 | 54.08858 | -36.91428 | 34130 ft | 511 kts | 263° |
| 2026-05-05 15:10 | 54.08658 | -37.03562 | 34121 ft | 514 kts | 263° |
| 2026-05-05 15:11 | 54.08483 | -37.13702 | 34120 ft | 516 kts | 263° |
| 2026-05-05 15:11 | 54.08222 | -37.27994 | 34112 ft | 517 kts | 263° |
| 2026-05-05 15:12 | 54.07986 | -37.40222 | 34147 ft | 516 kts | 263° |
| 2026-05-05 15:12 | 54.07847 | -37.52339 | 34095 ft | 514 kts | 262° |
| 2026-05-05 15:13 | 54.07560 | -37.64481 | 34110 ft | 513 kts | 261° |
| 2026-05-05 15:13 | 54.07218 | -37.76614 | 34111 ft | 514 kts | 261° |
| 2026-05-05 15:14 | 54.06910 | -37.88782 | 34108 ft | 515 kts | 261° |
| 2026-05-05 15:14 | 54.06614 | -38.00977 | 34101 ft | 516 kts | 261° |
| 2026-05-05 15:15 | 54.06309 | -38.13182 | 34102 ft | 517 kts | 261° |
| 2026-05-05 15:15 | 54.05988 | -38.25394 | 34098 ft | 516 kts | 261° |
| 2026-05-05 15:16 | 54.05653 | -38.37577 | 34098 ft | 515 kts | 261° |
| 2026-05-05 15:16 | 54.05306 | -38.49742 | 34095 ft | 514 kts | 261° |
| 2026-05-05 15:17 | 54.04947 | -38.61880 | 34115 ft | 513 kts | 260° |
| 2026-05-05 15:17 | 54.04575 | -38.74018 | 34141 ft | 514 kts | 261° |
| 2026-05-05 15:18 | 54.04192 | -38.86144 | 34100 ft | 512 kts | 261° |
| 2026-05-05 15:18 | 54.03800 | -38.98216 | 34089 ft | 510 kts | 261° |
| 2026-05-05 15:19 | 54.03396 | -39.10243 | 34105 ft | 508 kts | 261° |
| 2026-05-05 15:19 | 54.02981 | -39.22233 | 34093 ft | 507 kts | 260° |
| 2026-05-05 15:20 | 54.02627 | -39.32178 | 34095 ft | 507 kts | 260° |
| 2026-05-05 15:20 | 54.02303 | -39.46049 | 34095 ft | 496 kts | 259° |
| 2026-05-05 15:21 | 54.01625 | -39.57717 | 34105 ft | 498 kts | 260° |
| 2026-05-05 15:21 | 54.01173 | -39.69535 | 34101 ft | 503 kts | 261° |
| 2026-05-05 15:22 | 54.00756 | -39.81338 | 34093 ft | 505 kts | 261° |
| 2026-05-05 15:22 | 54.00281 | -39.93273 | 34091 ft | 506 kts | 261° |
| 2026-05-05 15:23 | 53.99759 | -40.05166 | 34084 ft | 500 kts | 260° |
| 2026-05-05 15:23 | 53.99092 | -40.16806 | 34082 ft | 494 kts | 259° |
| 2026-05-05 15:24 | 53.98374 | -40.28418 | 34086 ft | 495 kts | 259° |
| 2026-05-05 15:24 | 53.97661 | -40.40070 | 34080 ft | 496 kts | 259° |
| 2026-05-05 15:25 | 53.96953 | -40.51738 | 34084 ft | 498 kts | 259° |
| 2026-05-05 15:25 | 53.96234 | -40.63459 | 34083 ft | 500 kts | 259° |
| 2026-05-05 15:26 | 53.95501 | -40.75218 | 34078 ft | 501 kts | 259° |
| 2026-05-05 15:26 | 53.94756 | -40.86978 | 34071 ft | 501 kts | 258° |
| 2026-05-05 15:27 | 53.93999 | -40.98747 | 34070 ft | 501 kts | 258° |
| 2026-05-05 15:27 | 53.93231 | -41.10487 | 34062 ft | 501 kts | 258° |
| 2026-05-05 15:28 | 53.92452 | -41.22214 | 34093 ft | 500 kts | 258° |
| 2026-05-05 15:28 | 53.91668 | -41.33835 | 34057 ft | 497 kts | 258° |
| 2026-05-05 15:29 | 53.90874 | -41.45458 | 34067 ft | 495 kts | 258° |
| 2026-05-05 15:29 | 53.90069 | -41.57047 | 34059 ft | 495 kts | 258° |
| 2026-05-05 15:30 | 53.89254 | -41.68622 | 34059 ft | 495 kts | 258° |
| 2026-05-05 15:30 | 53.88561 | -41.78326 | 34056 ft | 495 kts | 258° |
| 2026-05-05 15:31 | 53.87723 | -41.89930 | 34057 ft | 496 kts | 258° |
| 2026-05-05 15:31 | 53.86873 | -42.01534 | 34045 ft | 496 kts | 258° |
| 2026-05-05 15:32 | 53.86015 | -42.13112 | 34046 ft | 495 kts | 258° |
| 2026-05-05 15:32 | 53.85146 | -42.24667 | 34028 ft | 494 kts | 258° |
| 2026-05-05 15:33 | 53.84273 | -42.36125 | 34029 ft | 493 kts | 257° |
| 2026-05-05 15:33 | 53.83385 | -42.47633 | 34054 ft | 493 kts | 258° |
| 2026-05-05 15:34 | 53.82486 | -42.59139 | 34025 ft | 492 kts | 257° |
| 2026-05-05 15:34 | 53.81578 | -42.70605 | 34009 ft | 491 kts | 257° |
| 2026-05-05 15:35 | 53.80661 | -42.82053 | 34023 ft | 490 kts | 257° |
| 2026-05-05 15:35 | 53.79734 | -42.93470 | 34020 ft | 490 kts | 257° |
| 2026-05-05 15:36 | 53.78798 | -43.04875 | 34014 ft | 490 kts | 257° |
| 2026-05-05 15:36 | 53.77850 | -43.16278 | 34016 ft | 490 kts | 257° |
| 2026-05-05 15:37 | 53.76892 | -43.27669 | 34027 ft | 489 kts | 257° |
| 2026-05-05 15:37 | 53.75923 | -43.39065 | 34012 ft | 490 kts | 257° |
| 2026-05-05 15:38 | 53.74941 | -43.50471 | 33997 ft | 491 kts | 257° |
| 2026-05-05 15:38 | 53.73947 | -43.61884 | 33995 ft | 491 kts | 257° |
| 2026-05-05 15:39 | 53.72942 | -43.73304 | 33995 ft | 492 kts | 257° |
| 2026-05-05 15:39 | 53.71933 | -43.84642 | 33983 ft | 491 kts | 257° |
| 2026-05-05 15:40 | 53.70901 | -43.96104 | 33980 ft | 490 kts | 257° |
| 2026-05-05 15:40 | 53.69874 | -44.07386 | 33968 ft | 489 kts | 257° |
| 2026-05-05 15:41 | 53.68832 | -44.18720 | 33967 ft | 489 kts | 257° |
| 2026-05-05 15:41 | 53.67778 | -44.30048 | 34006 ft | 489 kts | 257° |
| 2026-05-05 15:42 | 53.66669 | -44.41343 | 33967 ft | 486 kts | 256° |
| 2026-05-05 15:42 | 53.65613 | -44.52626 | 33947 ft | 487 kts | 257° |
| 2026-05-05 15:43 | 53.64556 | -44.63912 | 33954 ft | 488 kts | 257° |
| 2026-05-05 15:43 | 53.63470 | -44.75196 | 33942 ft | 488 kts | 257° |
| 2026-05-05 15:44 | 53.62364 | -44.86482 | 33929 ft | 488 kts | 256° |
| 2026-05-05 15:44 | 53.61248 | -44.97752 | 33923 ft | 487 kts | 256° |
| 2026-05-05 15:45 | 53.60128 | -45.08967 | 33920 ft | 484 kts | 256° |
| 2026-05-05 15:45 | 53.59003 | -45.20120 | 33918 ft | 482 kts | 256° |
| 2026-05-05 15:46 | 53.57868 | -45.31247 | 33915 ft | 483 kts | 256° |
| 2026-05-05 15:46 | 53.56720 | -45.42396 | 33910 ft | 484 kts | 256° |
| 2026-05-05 15:47 | 53.55559 | -45.53576 | 33917 ft | 486 kts | 256° |
| 2026-05-05 15:47 | 53.54385 | -45.64774 | 33888 ft | 486 kts | 256° |
| 2026-05-05 15:48 | 53.53209 | -45.75891 | 33880 ft | 486 kts | 256° |
| 2026-05-05 15:48 | 53.52016 | -45.87058 | 33882 ft | 485 kts | 256° |
| 2026-05-05 15:49 | 53.50814 | -45.98207 | 33868 ft | 484 kts | 256° |
| 2026-05-05 15:49 | 53.49595 | -46.09403 | 33891 ft | 484 kts | 256° |
| 2026-05-05 15:50 | 53.48492 | -46.20552 | 33876 ft | 484 kts | 256° |
| 2026-05-05 15:50 | 53.47209 | -46.31587 | 33861 ft | 485 kts | 255° |
| 2026-05-05 15:51 | 53.45911 | -46.42712 | 33865 ft | 487 kts | 256° |
| 2026-05-05 15:51 | 53.44638 | -46.53874 | 33864 ft | 487 kts | 256° |
| 2026-05-05 15:52 | 53.43370 | -46.65043 | 33829 ft | 487 kts | 256° |
| 2026-05-05 15:52 | 53.42093 | -46.76203 | 33829 ft | 487 kts | 256° |
| 2026-05-05 15:53 | 53.40804 | -46.87350 | 33836 ft | 487 kts | 255° |
| 2026-05-05 15:53 | 53.39506 | -46.98468 | 33834 ft | 486 kts | 255° |
| 2026-05-05 15:54 | 53.38196 | -47.09581 | 33815 ft | 487 kts | 255° |
| 2026-05-05 15:54 | 53.36874 | -47.20709 | 33814 ft | 487 kts | 255° |
| 2026-05-05 15:55 | 53.35541 | -47.31828 | 33828 ft | 487 kts | 256° |
| 2026-05-05 15:55 | 53.34415 | -47.42919 | 33811 ft | 481 kts | 256° |
| 2026-05-05 15:56 | 53.32994 | -47.53864 | 33809 ft | 483 kts | 254° |
| 2026-05-05 15:56 | 53.31535 | -47.64854 | 33805 ft | 485 kts | 255° |
| 2026-05-05 15:57 | 53.30136 | -47.75914 | 33790 ft | 487 kts | 255° |
| 2026-05-05 15:57 | 53.28757 | -47.87002 | 33780 ft | 487 kts | 255° |
| 2026-05-05 15:58 | 53.27372 | -47.98002 | 33778 ft | 487 kts | 256° |
| 2026-05-05 15:58 | 53.26129 | -48.09025 | 33760 ft | 481 kts | 255° |
| 2026-05-05 15:59 | 53.24639 | -48.19909 | 33768 ft | 481 kts | 253° |
| 2026-05-05 15:59 | 53.23127 | -48.30844 | 33768 ft | 485 kts | 255° |
| 2026-05-05 16:00 | 53.21720 | -48.41902 | 33754 ft | 488 kts | 255° |
| 2026-05-05 16:00 | 53.20296 | -48.52963 | 33758 ft | 487 kts | 255° |
| 2026-05-05 16:01 | 53.19034 | -48.63964 | 33748 ft | 479 kts | 255° |
| 2026-05-05 16:01 | 53.17531 | -48.74783 | 33742 ft | 479 kts | 252° |
| 2026-05-05 16:02 | 53.15942 | -48.85542 | 33778 ft | 480 kts | 255° |
| 2026-05-05 16:02 | 53.14587 | -48.96469 | 33735 ft | 483 kts | 256° |
| 2026-05-05 16:03 | 53.13109 | -49.07380 | 33726 ft | 482 kts | 255° |
| 2026-05-05 16:03 | 53.11559 | -49.18188 | 33726 ft | 478 kts | 251° |
| 2026-05-05 16:04 | 53.09891 | -49.28948 | 33703 ft | 483 kts | 256° |
| 2026-05-05 16:04 | 53.08625 | -49.39893 | 33714 ft | 480 kts | 256° |
| 2026-05-05 16:05 | 53.07059 | -49.50694 | 33717 ft | 481 kts | 253° |
| 2026-05-05 16:05 | 53.05570 | -49.61531 | 33693 ft | 477 kts | 256° |
| 2026-05-05 16:06 | 53.04038 | -49.72165 | 33704 ft | 477 kts | 252° |
| 2026-05-05 16:06 | 53.02493 | -49.82854 | 33694 ft | 476 kts | 255° |
| 2026-05-05 16:07 | 53.00879 | -49.93470 | 33697 ft | 476 kts | 255° |
| 2026-05-05 16:07 | 52.99257 | -50.04116 | 33690 ft | 474 kts | 248° |
| 2026-05-05 16:08 | 52.96787 | -50.14308 | 33680 ft | 478 kts | 245° |
| 2026-05-05 16:08 | 52.94109 | -50.24387 | 33676 ft | 476 kts | 245° |
| 2026-05-05 16:09 | 52.91773 | -50.34505 | 33671 ft | 467 kts | 247° |
| 2026-05-05 16:09 | 52.89389 | -50.44553 | 33665 ft | 469 kts | 246° |
| 2026-05-05 16:10 | 52.86814 | -50.54533 | 33668 ft | 473 kts | 245° |
| 2026-05-05 16:10 | 52.84317 | -50.64640 | 33671 ft | 473 kts | 245° |
| 2026-05-05 16:11 | 52.81799 | -50.74666 | 33669 ft | 470 kts | 247° |
| 2026-05-05 16:12 | 52.76840 | -50.94735 | 33643 ft | 475 kts | 246° |
| 2026-05-05 16:13 | 52.70541 | -51.19943 | 33632 ft | 475 kts | 246° |
| 2026-05-05 16:13 | 52.68027 | -51.29900 | 33624 ft | 473 kts | 246° |
| 2026-05-05 16:14 | 52.62961 | -51.49794 | 33625 ft | 470 kts | 246° |
| 2026-05-05 16:15 | 52.57887 | -51.69557 | 33627 ft | 468 kts | 246° |
| 2026-05-05 16:16 | 52.52797 | -51.89208 | 33636 ft | 466 kts | 246° |
| 2026-05-05 16:17 | 52.48969 | -52.03874 | 33634 ft | 466 kts | 246° |
| 2026-05-05 16:18 | 52.45126 | -52.18502 | 33609 ft | 466 kts | 246° |
| 2026-05-05 16:19 | 52.41697 | -52.31475 | 33607 ft | 466 kts | 246° |
| 2026-05-05 16:19 | 52.37372 | -52.47736 | 33624 ft | 467 kts | 246° |
| 2026-05-05 16:20 | 52.32172 | -52.67132 | 33625 ft | 466 kts | 246° |
| 2026-05-05 16:22 | 52.26056 | -52.89739 | 33625 ft | 464 kts | 245° |
| 2026-05-05 16:23 | 52.20804 | -53.08980 | 33601 ft | 467 kts | 245° |
| 2026-05-05 16:23 | 52.16824 | -53.23449 | 33616 ft | 466 kts | 245° |
| 2026-05-05 16:24 | 52.14163 | -53.33077 | 33618 ft | 466 kts | 245° |
| 2026-05-05 16:25 | 52.10158 | -53.47493 | 33607 ft | 467 kts | 245° |
| 2026-05-05 16:25 | 52.06129 | -53.61901 | 33606 ft | 466 kts | 245° |
| 2026-05-05 16:26 | 52.00740 | -53.81042 | 33606 ft | 466 kts | 245° |
| 2026-05-05 16:27 | 51.98037 | -53.90584 | 33603 ft | 466 kts | 245° |
| 2026-05-05 16:27 | 51.95324 | -54.00121 | 33626 ft | 466 kts | 245° |
| 2026-05-05 16:28 | 51.92694 | -54.09712 | 33600 ft | 464 kts | 246° |
| 2026-05-05 16:28 | 51.89968 | -54.19170 | 33612 ft | 464 kts | 244° |
| 2026-05-05 16:29 | 51.87157 | -54.28610 | 33605 ft | 468 kts | 245° |
| 2026-05-05 16:29 | 51.84403 | -54.38096 | 33615 ft | 470 kts | 245° |
| 2026-05-05 16:30 | 51.81632 | -54.47692 | 33603 ft | 471 kts | 245° |
| 2026-05-05 16:30 | 51.78875 | -54.57271 | 33608 ft | 469 kts | 246° |
| 2026-05-05 16:31 | 51.76302 | -54.66932 | 33615 ft | 467 kts | 248° |
| 2026-05-05 16:31 | 51.73779 | -54.76569 | 33617 ft | 465 kts | 248° |
| 2026-05-05 16:32 | 51.71237 | -54.86156 | 33625 ft | 464 kts | 247° |
| 2026-05-05 16:32 | 51.68678 | -54.95696 | 33612 ft | 463 kts | 248° |
| 2026-05-05 16:33 | 51.66544 | -55.03600 | 33628 ft | 462 kts | 248° |
| 2026-05-05 16:33 | 51.63541 | -55.14673 | 33607 ft | 461 kts | 248° |
| 2026-05-05 16:34 | 51.60969 | -55.24121 | 33602 ft | 460 kts | 248° |
| 2026-05-05 16:34 | 51.58394 | -55.33545 | 33603 ft | 460 kts | 248° |
| 2026-05-05 16:35 | 51.55831 | -55.42885 | 33594 ft | 459 kts | 248° |
| 2026-05-05 16:35 | 51.53342 | -55.52273 | 33591 ft | 456 kts | 248° |
| 2026-05-05 16:36 | 51.50791 | -55.61553 | 33600 ft | 454 kts | 247° |
| 2026-05-05 16:36 | 51.48159 | -55.70749 | 33601 ft | 454 kts | 247° |
| 2026-05-05 16:37 | 51.45552 | -55.79967 | 33598 ft | 454 kts | 248° |
| 2026-05-05 16:37 | 51.42963 | -55.89199 | 33595 ft | 454 kts | 248° |
| 2026-05-05 16:38 | 51.40379 | -55.98402 | 33588 ft | 452 kts | 248° |
| 2026-05-05 16:38 | 51.37795 | -56.07573 | 33595 ft | 451 kts | 247° |
| 2026-05-05 16:39 | 51.35205 | -56.16722 | 33600 ft | 451 kts | 247° |
| 2026-05-05 16:39 | 51.32609 | -56.25852 | 33591 ft | 451 kts | 247° |
| 2026-05-05 16:40 | 51.30003 | -56.34982 | 33506 ft | 451 kts | 248° |
| 2026-05-05 16:40 | 51.27400 | -56.44063 | 33585 ft | 448 kts | 248° |
| 2026-05-05 16:41 | 51.24801 | -56.53103 | 33598 ft | 448 kts | 248° |
| 2026-05-05 16:41 | 51.22214 | -56.62063 | 33600 ft | 448 kts | 248° |
| 2026-05-05 16:42 | 51.19602 | -56.71080 | 33602 ft | 448 kts | 248° |
| 2026-05-05 16:42 | 51.16983 | -56.80083 | 33602 ft | 448 kts | 248° |
| 2026-05-05 16:43 | 51.14355 | -56.89081 | 33601 ft | 448 kts | 248° |
| 2026-05-05 16:43 | 51.12166 | -56.96554 | 33618 ft | 449 kts | 248° |
| 2026-05-05 16:44 | 51.09067 | -57.07091 | 33610 ft | 450 kts | 248° |
| 2026-05-05 16:44 | 51.06403 | -57.16114 | 33611 ft | 451 kts | 248° |
| 2026-05-05 16:45 | 51.03727 | -57.25137 | 33597 ft | 451 kts | 248° |
| 2026-05-05 16:45 | 51.01050 | -57.34132 | 33623 ft | 449 kts | 248° |
| 2026-05-05 16:46 | 50.98378 | -57.43079 | 33640 ft | 448 kts | 248° |
| 2026-05-05 16:46 | 50.95707 | -57.51991 | 33655 ft | 447 kts | 248° |
| 2026-05-05 16:47 | 50.93034 | -57.60876 | 33665 ft | 446 kts | 248° |
| 2026-05-05 16:47 | 50.90359 | -57.69735 | 33643 ft | 446 kts | 249° |
| 2026-05-05 16:48 | 50.87682 | -57.78567 | 33689 ft | 445 kts | 249° |
| 2026-05-05 16:48 | 50.85002 | -57.87382 | 33693 ft | 444 kts | 248° |
| 2026-05-05 16:49 | 50.82337 | -57.96112 | 33708 ft | 443 kts | 248° |
| 2026-05-05 16:49 | 50.79650 | -58.04882 | 33702 ft | 443 kts | 248° |
| 2026-05-05 16:50 | 50.76960 | -58.13632 | 33683 ft | 443 kts | 249° |
| 2026-05-05 16:50 | 50.74264 | -58.22365 | 33704 ft | 442 kts | 249° |
| 2026-05-05 16:51 | 50.71565 | -58.31085 | 33712 ft | 442 kts | 249° |
| 2026-05-05 16:51 | 50.68861 | -58.39787 | 33703 ft | 442 kts | 249° |
| 2026-05-05 16:52 | 50.66147 | -58.48488 | 33708 ft | 442 kts | 249° |
| 2026-05-05 16:52 | 50.63426 | -58.57184 | 33664 ft | 443 kts | 249° |
| 2026-05-05 16:53 | 50.60699 | -58.65861 | 33700 ft | 442 kts | 249° |
| 2026-05-05 16:53 | 50.57969 | -58.74526 | 33705 ft | 442 kts | 249° |
| 2026-05-05 16:54 | 50.55235 | -58.83171 | 33701 ft | 441 kts | 249° |
| 2026-05-05 16:54 | 50.52497 | -58.91794 | 33703 ft | 440 kts | 249° |
| 2026-05-05 16:55 | 50.49760 | -59.00389 | 33684 ft | 440 kts | 249° |
| 2026-05-05 16:55 | 50.47028 | -59.08932 | 33689 ft | 436 kts | 249° |
| 2026-05-05 16:56 | 50.44327 | -59.17352 | 33692 ft | 434 kts | 249° |
| 2026-05-05 16:56 | 50.41617 | -59.25778 | 33704 ft | 432 kts | 249° |
| 2026-05-05 16:57 | 50.38909 | -59.34166 | 33706 ft | 431 kts | 249° |
| 2026-05-05 16:57 | 50.36198 | -59.42537 | 33716 ft | 431 kts | 249° |
| 2026-05-05 16:58 | 50.33606 | -59.50863 | 33686 ft | 417 kts | 251° |
| 2026-05-05 16:58 | 50.32038 | -59.54703 | 33718 ft | 427 kts | 234° |
| 2026-05-05 16:58 | 50.30038 | -59.58091 | 33697 ft | 416 kts | 245° |
| 2026-05-05 16:59 | 50.28835 | -59.62113 | 33719 ft | 409 kts | 256° |
| 2026-05-05 16:59 | 50.27877 | -59.66340 | 33724 ft | 416 kts | 255° |
| 2026-05-05 16:59 | 50.25598 | -59.74797 | 33740 ft | 426 kts | 251° |
| 2026-05-05 17:00 | 50.22966 | -59.83122 | 33729 ft | 427 kts | 249° |
| 2026-05-05 17:00 | 50.20235 | -59.91353 | 33738 ft | 427 kts | 249° |
| 2026-05-05 17:01 | 50.17492 | -59.99562 | 33733 ft | 427 kts | 249° |
| 2026-05-05 17:01 | 50.14752 | -60.07771 | 33752 ft | 426 kts | 249° |
| 2026-05-05 17:02 | 50.12013 | -60.15973 | 33742 ft | 427 kts | 249° |
| 2026-05-05 17:02 | 50.09269 | -60.24172 | 33755 ft | 427 kts | 249° |
| 2026-05-05 17:03 | 50.06537 | -60.32309 | 33752 ft | 427 kts | 248° |
| 2026-05-05 17:03 | 50.03777 | -60.40504 | 33762 ft | 429 kts | 248° |
| 2026-05-05 17:04 | 50.01001 | -60.48720 | 33764 ft | 430 kts | 248° |
| 2026-05-05 17:04 | 49.98204 | -60.56971 | 33768 ft | 432 kts | 248° |
| 2026-05-05 17:05 | 49.95391 | -60.65241 | 33768 ft | 434 kts | 248° |
| 2026-05-05 17:05 | 49.92562 | -60.73526 | 33728 ft | 434 kts | 248° |
| 2026-05-05 17:06 | 49.89728 | -60.81802 | 33753 ft | 435 kts | 248° |
| 2026-05-05 17:06 | 49.86878 | -60.90099 | 33760 ft | 436 kts | 248° |
| 2026-05-05 17:07 | 49.84019 | -60.98394 | 33759 ft | 437 kts | 248° |
| 2026-05-05 17:07 | 49.81152 | -61.06686 | 33759 ft | 437 kts | 248° |
| 2026-05-05 17:08 | 49.78279 | -61.14967 | 33761 ft | 436 kts | 248° |
| 2026-05-05 17:08 | 49.75405 | -61.23224 | 33754 ft | 436 kts | 248° |
| 2026-05-05 17:09 | 49.72526 | -61.31471 | 33756 ft | 436 kts | 248° |
| 2026-05-05 17:09 | 49.69642 | -61.39704 | 33756 ft | 435 kts | 248° |
| 2026-05-05 17:10 | 49.66756 | -61.47918 | 33755 ft | 435 kts | 248° |
| 2026-05-05 17:10 | 49.63864 | -61.56120 | 33738 ft | 434 kts | 248° |
| 2026-05-05 17:11 | 49.60996 | -61.64232 | 33742 ft | 434 kts | 248° |
| 2026-05-05 17:11 | 49.58104 | -61.72385 | 33739 ft | 433 kts | 248° |
| 2026-05-05 17:12 | 49.55677 | -61.79207 | 33762 ft | 433 kts | 248° |
| 2026-05-05 17:12 | 49.52306 | -61.88652 | 33749 ft | 433 kts | 248° |
| 2026-05-05 17:13 | 49.49399 | -61.96769 | 33743 ft | 432 kts | 248° |
| 2026-05-05 17:13 | 49.46985 | -62.03490 | 33757 ft | 432 kts | 248° |
| 2026-05-05 17:14 | 49.44080 | -62.11554 | 33759 ft | 431 kts | 248° |
| 2026-05-05 17:14 | 49.41174 | -62.19597 | 33762 ft | 430 kts | 248° |
| 2026-05-05 17:15 | 49.38272 | -62.27604 | 33763 ft | 429 kts | 248° |
| 2026-05-05 17:15 | 49.35368 | -62.35595 | 33746 ft | 428 kts | 248° |
| 2026-05-05 17:16 | 49.32466 | -62.43553 | 33771 ft | 427 kts | 248° |
| 2026-05-05 17:16 | 49.29562 | -62.51495 | 33770 ft | 427 kts | 248° |
| 2026-05-05 17:17 | 49.26651 | -62.59430 | 33775 ft | 427 kts | 248° |
| 2026-05-05 17:17 | 49.23733 | -62.67361 | 33777 ft | 428 kts | 248° |
| 2026-05-05 17:18 | 49.20809 | -62.75283 | 33778 ft | 428 kts | 247° |
| 2026-05-05 17:18 | 49.17878 | -62.83199 | 33774 ft | 428 kts | 247° |
| 2026-05-05 17:19 | 49.14943 | -62.91103 | 33766 ft | 428 kts | 247° |
| 2026-05-05 17:19 | 49.12021 | -62.98948 | 33775 ft | 427 kts | 247° |
| 2026-05-05 17:20 | 49.09059 | -63.06876 | 33766 ft | 427 kts | 246° |
| 2026-05-05 17:20 | 49.06113 | -63.14735 | 33751 ft | 426 kts | 246° |
| 2026-05-05 17:21 | 49.03168 | -63.22569 | 33753 ft | 425 kts | 246° |
| 2026-05-05 17:22 | 48.98774 | -63.34216 | 33750 ft | 424 kts | 246° |
| 2026-05-05 17:22 | 48.95832 | -63.41988 | 33750 ft | 424 kts | 246° |
| 2026-05-05 17:23 | 48.92884 | -63.49752 | 33731 ft | 424 kts | 246° |
| 2026-05-05 17:23 | 48.89934 | -63.57495 | 33725 ft | 423 kts | 246° |
| 2026-05-05 17:24 | 48.86984 | -63.65216 | 33733 ft | 422 kts | 246° |
| 2026-05-05 17:24 | 48.84028 | -63.72928 | 33734 ft | 422 kts | 246° |
| 2026-05-05 17:25 | 48.81073 | -63.80620 | 33729 ft | 422 kts | 245° |
| 2026-05-05 17:25 | 48.78118 | -63.88289 | 33716 ft | 420 kts | 245° |
| 2026-05-05 17:26 | 48.75170 | -63.95915 | 33711 ft | 418 kts | 245° |
| 2026-05-05 17:26 | 48.72230 | -64.03499 | 33706 ft | 417 kts | 245° |
| 2026-05-05 17:27 | 48.69294 | -64.11054 | 33693 ft | 416 kts | 245° |
| 2026-05-05 17:27 | 48.66356 | -64.18592 | 33686 ft | 416 kts | 245° |
| 2026-05-05 17:28 | 48.63409 | -64.26131 | 33678 ft | 416 kts | 245° |
| 2026-05-05 17:28 | 48.60455 | -64.33669 | 33684 ft | 417 kts | 244° |
| 2026-05-05 17:29 | 48.57486 | -64.41224 | 33675 ft | 419 kts | 244° |
| 2026-05-05 17:29 | 48.54503 | -64.48792 | 33683 ft | 420 kts | 244° |
| 2026-05-05 17:30 | 48.51498 | -64.56393 | 33716 ft | 423 kts | 244° |
| 2026-05-05 17:30 | 48.48469 | -64.64029 | 33715 ft | 425 kts | 244° |
| 2026-05-05 17:31 | 48.45425 | -64.71684 | 33689 ft | 427 kts | 243° |
| 2026-05-05 17:31 | 48.42382 | -64.79314 | 33695 ft | 428 kts | 243° |
| 2026-05-05 17:32 | 48.39308 | -64.86999 | 33690 ft | 429 kts | 243° |
| 2026-05-05 17:32 | 48.36223 | -64.94689 | 33693 ft | 429 kts | 243° |
| 2026-05-05 17:33 | 48.33140 | -65.02355 | 33691 ft | 428 kts | 243° |
| 2026-05-05 17:33 | 48.30052 | -65.10009 | 33696 ft | 428 kts | 243° |
| 2026-05-05 17:34 | 48.26969 | -65.17629 | 33697 ft | 427 kts | 243° |
| 2026-05-05 17:34 | 48.23880 | -65.25245 | 33695 ft | 427 kts | 243° |
| 2026-05-05 17:35 | 48.20787 | -65.32848 | 33700 ft | 427 kts | 243° |
| 2026-05-05 17:35 | 48.17689 | -65.40438 | 33669 ft | 426 kts | 243° |
| 2026-05-05 17:36 | 48.14593 | -65.48005 | 33673 ft | 426 kts | 242° |
| 2026-05-05 17:36 | 48.11494 | -65.55560 | 33678 ft | 426 kts | 242° |
| 2026-05-05 17:37 | 48.08393 | -65.63098 | 33676 ft | 426 kts | 242° |
| 2026-05-05 17:37 | 48.05282 | -65.70639 | 33672 ft | 426 kts | 242° |
| 2026-05-05 17:38 | 48.02165 | -65.78171 | 33660 ft | 427 kts | 242° |
| 2026-05-05 17:38 | 47.99036 | -65.85713 | 33670 ft | 428 kts | 242° |
| 2026-05-05 17:39 | 47.95894 | -65.93267 | 33666 ft | 429 kts | 242° |
| 2026-05-05 17:39 | 47.92734 | -66.00839 | 33671 ft | 430 kts | 242° |
| 2026-05-05 17:40 | 47.89567 | -66.08409 | 33678 ft | 431 kts | 242° |
| 2026-05-05 17:40 | 47.86396 | -66.15966 | 33672 ft | 429 kts | 242° |
| 2026-05-05 17:41 | 47.83237 | -66.23472 | 33662 ft | 427 kts | 242° |
| 2026-05-05 17:41 | 47.80090 | -66.30931 | 33666 ft | 425 kts | 242° |
| 2026-05-05 17:42 | 47.76971 | -66.38305 | 33661 ft | 424 kts | 241° |
| 2026-05-05 17:42 | 47.73831 | -66.45707 | 33660 ft | 423 kts | 241° |
| 2026-05-05 17:43 | 47.70691 | -66.53092 | 33652 ft | 422 kts | 241° |
| 2026-05-05 17:43 | 47.67550 | -66.60456 | 33658 ft | 422 kts | 241° |
| 2026-05-05 17:44 | 47.64406 | -66.67809 | 33659 ft | 422 kts | 241° |
| 2026-05-05 17:44 | 47.61258 | -66.75151 | 33662 ft | 422 kts | 241° |
| 2026-05-05 17:45 | 47.58100 | -66.82496 | 33642 ft | 422 kts | 241° |
| 2026-05-05 17:45 | 47.54950 | -66.89803 | 33658 ft | 420 kts | 240° |
| 2026-05-05 17:46 | 47.51804 | -66.97080 | 33661 ft | 419 kts | 240° |
| 2026-05-05 17:46 | 47.48659 | -67.04338 | 33662 ft | 419 kts | 240° |
| 2026-05-05 17:47 | 47.45514 | -67.11576 | 33673 ft | 418 kts | 240° |
| 2026-05-05 17:47 | 47.42366 | -67.18807 | 33632 ft | 419 kts | 240° |
| 2026-05-05 17:48 | 47.39210 | -67.26034 | 33670 ft | 420 kts | 240° |
| 2026-05-05 17:48 | 47.35684 | -67.32947 | 33676 ft | 425 kts | 232° |
| 2026-05-05 17:49 | 47.31572 | -67.39177 | 33670 ft | 427 kts | 230° |
| 2026-05-05 17:49 | 47.27426 | -67.45465 | 33668 ft | 428 kts | 230° |
| 2026-05-05 17:50 | 47.23288 | -67.51755 | 33668 ft | 428 kts | 230° |
| 2026-05-05 17:50 | 47.19146 | -67.58042 | 33691 ft | 428 kts | 230° |
| 2026-05-05 17:51 | 47.14992 | -67.64334 | 33678 ft | 429 kts | 230° |
| 2026-05-05 17:51 | 47.10833 | -67.70617 | 33677 ft | 429 kts | 230° |
| 2026-05-05 17:52 | 47.06675 | -67.76883 | 33674 ft | 429 kts | 230° |
| 2026-05-05 17:52 | 47.02512 | -67.83143 | 33673 ft | 429 kts | 230° |
| 2026-05-05 17:53 | 46.98344 | -67.89394 | 33676 ft | 429 kts | 230° |
| 2026-05-05 17:53 | 46.94174 | -67.95634 | 33678 ft | 429 kts | 230° |
| 2026-05-05 17:54 | 46.89992 | -68.01878 | 33667 ft | 429 kts | 230° |
| 2026-05-05 17:54 | 46.85802 | -68.08117 | 33677 ft | 431 kts | 230° |
| 2026-05-05 17:55 | 46.81596 | -68.14368 | 33679 ft | 432 kts | 229° |
| 2026-05-05 17:55 | 46.77373 | -68.20627 | 33678 ft | 433 kts | 229° |
| 2026-05-05 17:56 | 46.73142 | -68.26881 | 33681 ft | 433 kts | 229° |
| 2026-05-05 17:56 | 46.69629 | -68.32065 | 33694 ft | 433 kts | 229° |
| 2026-05-05 17:57 | 46.64673 | -68.39360 | 33688 ft | 433 kts | 229° |
| 2026-05-05 17:57 | 46.60439 | -68.45577 | 33679 ft | 432 kts | 229° |
| 2026-05-05 17:58 | 46.56918 | -68.50734 | 33680 ft | 432 kts | 229° |
| 2026-05-05 17:58 | 46.52000 | -68.57920 | 33689 ft | 431 kts | 229° |
| 2026-05-05 17:59 | 46.47797 | -68.64046 | 33684 ft | 425 kts | 228° |
| 2026-05-05 17:59 | 46.43640 | -68.70093 | 33692 ft | 421 kts | 228° |
| 2026-05-05 18:00 | 46.39507 | -68.76092 | 33694 ft | 420 kts | 228° |
| 2026-05-05 18:00 | 46.35365 | -68.82092 | 33706 ft | 422 kts | 228° |
| 2026-05-05 18:01 | 46.31198 | -68.88114 | 33704 ft | 425 kts | 228° |
| 2026-05-05 18:01 | 46.27005 | -68.94159 | 33701 ft | 427 kts | 228° |
| 2026-05-05 18:02 | 46.23501 | -68.99199 | 33688 ft | 428 kts | 227° |
| 2026-05-05 18:02 | 46.19271 | -69.05269 | 33697 ft | 429 kts | 227° |
| 2026-05-05 18:03 | 46.15034 | -69.11336 | 33702 ft | 430 kts | 227° |
| 2026-05-05 18:03 | 46.10786 | -69.17406 | 33701 ft | 430 kts | 227° |
| 2026-05-05 18:04 | 46.06540 | -69.23458 | 33691 ft | 429 kts | 227° |
| 2026-05-05 18:04 | 46.02290 | -69.29501 | 33692 ft | 429 kts | 227° |
| 2026-05-05 18:05 | 45.98033 | -69.35542 | 33689 ft | 430 kts | 227° |
| 2026-05-05 18:05 | 45.93774 | -69.41572 | 33694 ft | 430 kts | 227° |
| 2026-05-05 18:06 | 45.89502 | -69.47606 | 33691 ft | 431 kts | 227° |
| 2026-05-05 18:06 | 45.85214 | -69.53650 | 33687 ft | 432 kts | 227° |
| 2026-05-05 18:07 | 45.80922 | -69.59683 | 33702 ft | 432 kts | 227° |
| 2026-05-05 18:07 | 45.76624 | -69.65711 | 33706 ft | 432 kts | 227° |
| 2026-05-05 18:08 | 45.72348 | -69.71697 | 33698 ft | 433 kts | 227° |
| 2026-05-05 18:08 | 45.68032 | -69.77726 | 33698 ft | 434 kts | 227° |
| 2026-05-05 18:09 | 45.63701 | -69.83761 | 33693 ft | 435 kts | 227° |
| 2026-05-05 18:09 | 45.59358 | -69.89797 | 33695 ft | 435 kts | 227° |
| 2026-05-05 18:10 | 45.55022 | -69.95811 | 33698 ft | 435 kts | 227° |
| 2026-05-05 18:10 | 45.50680 | -70.01819 | 33715 ft | 435 kts | 227° |
| 2026-05-05 18:11 | 45.46327 | -70.07830 | 33710 ft | 436 kts | 227° |
| 2026-05-05 18:11 | 45.41958 | -70.13849 | 33703 ft | 437 kts | 227° |
| 2026-05-05 18:12 | 45.37580 | -70.19863 | 33716 ft | 438 kts | 227° |
| 2026-05-05 18:12 | 45.33191 | -70.25883 | 33716 ft | 439 kts | 227° |
| 2026-05-05 18:13 | 45.28793 | -70.31901 | 33732 ft | 439 kts | 227° |
| 2026-05-05 18:13 | 45.24396 | -70.37905 | 33700 ft | 439 kts | 227° |
| 2026-05-05 18:14 | 45.19992 | -70.43903 | 33708 ft | 439 kts | 226° |
| 2026-05-05 18:14 | 45.15579 | -70.49899 | 33718 ft | 439 kts | 226° |
| 2026-05-05 18:15 | 45.11171 | -70.55876 | 33718 ft | 439 kts | 226° |
| 2026-05-05 18:15 | 45.06790 | -70.61803 | 33722 ft | 438 kts | 226° |
| 2026-05-05 18:16 | 45.02380 | -70.67756 | 33726 ft | 439 kts | 226° |
| 2026-05-05 18:16 | 44.97960 | -70.73709 | 33719 ft | 439 kts | 226° |
| 2026-05-05 18:17 | 44.93535 | -70.79655 | 33728 ft | 439 kts | 226° |
| 2026-05-05 18:17 | 44.89109 | -70.85589 | 33732 ft | 439 kts | 226° |
| 2026-05-05 18:18 | 44.84675 | -70.91521 | 33730 ft | 440 kts | 226° |
| 2026-05-05 18:18 | 44.80232 | -70.97453 | 33722 ft | 440 kts | 226° |
| 2026-05-05 18:19 | 44.75793 | -71.03363 | 33717 ft | 439 kts | 226° |
| 2026-05-05 18:19 | 44.71354 | -71.09263 | 33714 ft | 439 kts | 226° |
| 2026-05-05 18:20 | 44.66910 | -71.15156 | 33708 ft | 439 kts | 226° |
| 2026-05-05 18:20 | 44.62467 | -71.21033 | 33713 ft | 438 kts | 226° |
| 2026-05-05 18:21 | 44.58033 | -71.26887 | 33735 ft | 437 kts | 226° |
| 2026-05-05 18:21 | 44.53594 | -71.32733 | 33729 ft | 438 kts | 226° |
| 2026-05-05 18:22 | 44.49149 | -71.38577 | 33725 ft | 439 kts | 226° |
| 2026-05-05 18:22 | 44.44692 | -71.44422 | 33702 ft | 439 kts | 226° |
| 2026-05-05 18:23 | 44.40236 | -71.50249 | 33711 ft | 439 kts | 226° |
| 2026-05-05 18:23 | 44.35762 | -71.56099 | 33723 ft | 441 kts | 226° |
| 2026-05-05 18:24 | 44.31264 | -71.61959 | 33721 ft | 442 kts | 226° |
| 2026-05-05 18:24 | 44.26790 | -71.67776 | 33728 ft | 443 kts | 226° |
| 2026-05-05 18:25 | 44.22266 | -71.73647 | 33714 ft | 444 kts | 226° |
| 2026-05-05 18:25 | 44.17923 | -71.79730 | 33719 ft | 442 kts | 229° |
| 2026-05-05 18:26 | 44.13677 | -71.85911 | 33718 ft | 442 kts | 229° |
| 2026-05-05 18:26 | 44.09427 | -71.92086 | 33695 ft | 442 kts | 229° |
| 2026-05-05 18:27 | 44.05164 | -71.98251 | 33711 ft | 442 kts | 229° |
| 2026-05-05 18:27 | 44.00899 | -72.04393 | 33707 ft | 441 kts | 229° |
| 2026-05-05 18:28 | 43.94509 | -72.13570 | 33714 ft | 441 kts | 229° |
| 2026-05-05 18:28 | 43.90233 | -72.19693 | 33725 ft | 442 kts | 229° |
| 2026-05-05 18:29 | 43.85944 | -72.25827 | 33726 ft | 444 kts | 229° |
| 2026-05-05 18:29 | 43.81634 | -72.31972 | 33714 ft | 445 kts | 229° |
| 2026-05-05 18:30 | 43.77347 | -72.38072 | 33734 ft | 445 kts | 229° |
| 2026-05-05 18:30 | 43.73017 | -72.44220 | 33721 ft | 446 kts | 229° |
| 2026-05-05 18:31 | 43.68684 | -72.50360 | 33732 ft | 446 kts | 229° |
| 2026-05-05 18:31 | 43.64348 | -72.56486 | 33698 ft | 446 kts | 229° |
| 2026-05-05 18:32 | 43.60008 | -72.62610 | 33737 ft | 447 kts | 229° |
| 2026-05-05 18:32 | 43.55655 | -72.68735 | 33742 ft | 447 kts | 229° |
| 2026-05-05 18:33 | 43.51291 | -72.74862 | 33746 ft | 447 kts | 229° |
| 2026-05-05 18:33 | 43.46935 | -72.80967 | 33741 ft | 447 kts | 229° |
| 2026-05-05 18:34 | 43.42579 | -72.87057 | 33740 ft | 446 kts | 229° |
| 2026-05-05 18:34 | 43.38225 | -72.93131 | 33748 ft | 445 kts | 229° |
| 2026-05-05 18:35 | 43.33871 | -72.99193 | 33722 ft | 446 kts | 229° |
| 2026-05-05 18:35 | 43.29517 | -73.05239 | 33758 ft | 445 kts | 229° |
| 2026-05-05 18:36 | 43.25150 | -73.11295 | 33756 ft | 447 kts | 229° |
| 2026-05-05 18:36 | 43.20762 | -73.17363 | 33766 ft | 449 kts | 228° |
| 2026-05-05 18:37 | 43.16356 | -73.23444 | 33737 ft | 450 kts | 229° |
| 2026-05-05 18:37 | 43.11934 | -73.29535 | 33766 ft | 451 kts | 228° |
| 2026-05-05 18:38 | 43.07503 | -73.35622 | 33767 ft | 452 kts | 229° |
| 2026-05-05 18:38 | 43.03067 | -73.41704 | 33766 ft | 451 kts | 229° |
| 2026-05-05 18:39 | 42.98639 | -73.47763 | 33760 ft | 452 kts | 229° |
| 2026-05-05 18:39 | 42.94212 | -73.53808 | 33757 ft | 453 kts | 229° |
| 2026-05-05 18:40 | 42.89745 | -73.59895 | 33764 ft | 454 kts | 228° |
| 2026-05-05 18:40 | 42.85266 | -73.65983 | 33782 ft | 455 kts | 229° |
| 2026-05-05 18:41 | 42.80786 | -73.72064 | 33751 ft | 454 kts | 229° |
| 2026-05-05 18:41 | 42.76026 | -73.77698 | 33753 ft | 461 kts | 214° |
| 2026-05-05 18:42 | 42.69868 | -73.80521 | 33748 ft | 479 kts | 192° |
| 2026-05-05 18:42 | 42.63143 | -73.80700 | 33749 ft | 486 kts | 186° |
| 2026-05-05 18:43 | 42.56366 | -73.80675 | 33755 ft | 488 kts | 186° |
| 2026-05-05 18:43 | 42.49565 | -73.80733 | 33760 ft | 489 kts | 186° |
| 2026-05-05 18:44 | 42.42750 | -73.80847 | 33762 ft | 490 kts | 187° |
| 2026-05-05 18:44 | 42.35930 | -73.80975 | 33769 ft | 491 kts | 187° |
| 2026-05-05 18:45 | 42.29139 | -73.81098 | 33772 ft | 492 kts | 186° |
| 2026-05-05 18:45 | 42.22298 | -73.81220 | 33773 ft | 492 kts | 186° |
| 2026-05-05 18:46 | 42.15442 | -73.81338 | 33779 ft | 493 kts | 186° |
| 2026-05-05 18:46 | 42.08569 | -73.81458 | 33785 ft | 494 kts | 186° |
| 2026-05-05 18:47 | 42.01700 | -73.81579 | 33780 ft | 494 kts | 186° |
| 2026-05-05 18:47 | 41.94830 | -73.81698 | 33797 ft | 494 kts | 186° |
| 2026-05-05 18:48 | 41.87954 | -73.81816 | 33797 ft | 494 kts | 186° |
| 2026-05-05 18:48 | 41.81085 | -73.81937 | 33816 ft | 494 kts | 186° |
| 2026-05-05 18:49 | 41.74287 | -73.82738 | 33824 ft | 486 kts | 197° |
| 2026-05-05 18:49 | 41.68938 | -73.84860 | 33827 ft | 480 kts | 207° |
| 2026-05-05 18:50 | 41.62897 | -73.88572 | 33816 ft | 478 kts | 210° |
| 2026-05-05 18:50 | 41.55880 | -73.92901 | 33822 ft | 478 kts | 209° |
| 2026-05-05 18:51 | 41.50805 | -73.95971 | 33834 ft | 478 kts | 209° |
| 2026-05-05 18:51 | 41.44743 | -73.99623 | 33803 ft | 478 kts | 209° |
| 2026-05-05 18:52 | 41.38957 | -74.03851 | 33781 ft | 472 kts | 221° |
| 2026-05-05 18:52 | 41.33888 | -74.09086 | 33844 ft | 472 kts | 222° |
| 2026-05-05 18:53 | 41.28634 | -74.14448 | 33823 ft | 476 kts | 223° |
| 2026-05-05 18:53 | 41.23427 | -74.19864 | 33842 ft | 475 kts | 223° |
| 2026-05-05 18:54 | 41.18797 | -74.25900 | 33864 ft | 466 kts | 234° |
| 2026-05-05 18:54 | 41.15065 | -74.32858 | 33866 ft | 460 kts | 243° |
| 2026-05-05 18:55 | 41.11765 | -74.40138 | 33856 ft | 460 kts | 245° |
| 2026-05-05 18:55 | 41.08593 | -74.47445 | 33879 ft | 458 kts | 244° |
| 2026-05-05 18:56 | 41.05161 | -74.54633 | 33873 ft | 464 kts | 243° |
| 2026-05-05 18:56 | 41.01725 | -74.61905 | 33870 ft | 467 kts | 244° |
| 2026-05-05 18:57 | 40.98322 | -74.69226 | 33855 ft | 467 kts | 244° |
| 2026-05-05 18:57 | 40.94919 | -74.76545 | 33845 ft | 467 kts | 244° |
| 2026-05-05 18:58 | 40.91510 | -74.83844 | 33854 ft | 467 kts | 244° |
| 2026-05-05 18:58 | 40.88089 | -74.91133 | 33850 ft | 466 kts | 244° |
| 2026-05-05 18:59 | 40.84665 | -74.98408 | 33856 ft | 466 kts | 244° |
| 2026-05-05 18:59 | 40.81283 | -75.05588 | 33862 ft | 466 kts | 244° |
| 2026-05-05 19:00 | 40.77860 | -75.12835 | 33847 ft | 465 kts | 243° |
| 2026-05-05 19:00 | 40.74441 | -75.20061 | 33857 ft | 465 kts | 243° |
| 2026-05-05 19:01 | 40.71011 | -75.27293 | 33850 ft | 465 kts | 243° |
| 2026-05-05 19:01 | 40.67582 | -75.34508 | 33851 ft | 465 kts | 243° |
| 2026-05-05 19:02 | 40.64199 | -75.41764 | 33853 ft | 464 kts | 245° |
| 2026-05-05 19:02 | 40.61074 | -75.49106 | 33870 ft | 462 kts | 246° |
| 2026-05-05 19:03 | 40.57945 | -75.56491 | 33868 ft | 462 kts | 245° |
| 2026-05-05 19:03 | 40.54778 | -75.63843 | 33867 ft | 462 kts | 245° |
| 2026-05-05 19:04 | 40.51638 | -75.71081 | 33871 ft | 462 kts | 245° |
| 2026-05-05 19:04 | 40.48505 | -75.78285 | 33476 ft | 449 kts | 245° |
| 2026-05-05 19:05 | 40.46960 | -75.81804 | 32944 ft | 443 kts | 244° |
| 2026-05-05 19:05 | 40.45386 | -75.85296 | 31683 ft | 450 kts | 243° |
| 2026-05-05 19:05 | 40.43593 | -75.88719 | 30707 ft | 459 kts | 237° |
| 2026-05-05 19:05 | 40.41525 | -75.91933 | 30039 ft | 461 kts | 231° |
| 2026-05-05 19:06 | 40.39253 | -75.94809 | 29820 ft | 440 kts | 228° |
| 2026-05-05 19:06 | 40.37102 | -75.97465 | 29416 ft | 416 kts | 229° |
| 2026-05-05 19:06 | 40.35027 | -76.00063 | 29072 ft | 408 kts | 229° |
| 2026-05-05 19:06 | 40.33003 | -76.02619 | 28806 ft | 400 kts | 229° |
| 2026-05-05 19:07 | 40.31045 | -76.05099 | 28451 ft | 394 kts | 229° |
| 2026-05-05 19:07 | 40.29084 | -76.07585 | 27988 ft | 391 kts | 229° |
| 2026-05-05 19:07 | 40.27110 | -76.10087 | 27442 ft | 390 kts | 229° |
| 2026-05-05 19:07 | 40.25159 | -76.12554 | 26965 ft | 388 kts | 228° |
| 2026-05-05 19:08 | 40.23252 | -76.14962 | 26614 ft | 384 kts | 228° |
| 2026-05-05 19:08 | 40.21365 | -76.17375 | 26376 ft | 375 kts | 229° |
| 2026-05-05 19:08 | 40.19514 | -76.19758 | 25970 ft | 372 kts | 229° |
| 2026-05-05 19:08 | 40.17645 | -76.22095 | 25479 ft | 372 kts | 227° |
| 2026-05-05 19:09 | 40.16400 | -76.23626 | 25188 ft | 371 kts | 227° |
| 2026-05-05 19:09 | 40.13917 | -76.26713 | 24681 ft | 366 kts | 228° |
| 2026-05-05 19:09 | 40.12227 | -76.29159 | 24354 ft | 359 kts | 234° |
| 2026-05-05 19:09 | 40.10760 | -76.31762 | 23977 ft | 354 kts | 240° |
| 2026-05-05 19:10 | 40.09493 | -76.34494 | 23563 ft | 351 kts | 241° |
| 2026-05-05 19:10 | 40.08247 | -76.37231 | 23097 ft | 349 kts | 241° |
| 2026-05-05 19:10 | 40.07006 | -76.39944 | 22664 ft | 347 kts | 241° |
| 2026-05-05 19:10 | 40.05767 | -76.42634 | 22242 ft | 345 kts | 241° |
| 2026-05-05 19:11 | 40.04534 | -76.45303 | 21814 ft | 342 kts | 241° |
| 2026-05-05 19:11 | 40.03307 | -76.47955 | 21400 ft | 340 kts | 241° |
| 2026-05-05 19:11 | 40.02090 | -76.50583 | 20989 ft | 337 kts | 240° |
| 2026-05-05 19:11 | 40.00891 | -76.53188 | 20574 ft | 333 kts | 240° |
| 2026-05-05 19:12 | 39.99689 | -76.55765 | 20169 ft | 332 kts | 240° |
| 2026-05-05 19:12 | 39.98496 | -76.58329 | 19765 ft | 330 kts | 240° |
| 2026-05-05 19:12 | 39.97312 | -76.60875 | 19366 ft | 328 kts | 240° |
| 2026-05-05 19:12 | 39.96131 | -76.63420 | 18956 ft | 327 kts | 240° |
| 2026-05-05 19:13 | 39.94953 | -76.65951 | 18560 ft | 325 kts | 240° |
| 2026-05-05 19:13 | 39.93783 | -76.68462 | 18187 ft | 323 kts | 240° |
| 2026-05-05 19:13 | 39.92621 | -76.70956 | 17761 ft | 322 kts | 240° |
| 2026-05-05 19:13 | 39.91461 | -76.73441 | 17328 ft | 320 kts | 240° |
| 2026-05-05 19:14 | 39.90312 | -76.75903 | 16913 ft | 318 kts | 240° |
| 2026-05-05 19:14 | 39.89167 | -76.78355 | 16503 ft | 315 kts | 240° |
| 2026-05-05 19:14 | 39.88032 | -76.80783 | 16099 ft | 313 kts | 240° |
| 2026-05-05 19:14 | 39.86902 | -76.83202 | 15696 ft | 311 kts | 241° |
| 2026-05-05 19:15 | 39.85778 | -76.85605 | 15297 ft | 310 kts | 241° |
| 2026-05-05 19:15 | 39.84659 | -76.87992 | 14918 ft | 308 kts | 241° |
| 2026-05-05 19:15 | 39.83545 | -76.90364 | 14515 ft | 307 kts | 241° |
| 2026-05-05 19:15 | 39.82435 | -76.92730 | 14117 ft | 305 kts | 241° |
| 2026-05-05 19:16 | 39.81332 | -76.95082 | 13721 ft | 304 kts | 241° |
| 2026-05-05 19:16 | 39.80232 | -76.97425 | 13283 ft | 303 kts | 241° |
| 2026-05-05 19:16 | 39.79137 | -76.99754 | 12868 ft | 301 kts | 240° |
| 2026-05-05 19:16 | 39.78044 | -77.02076 | 12459 ft | 299 kts | 240° |
| 2026-05-05 19:17 | 39.76974 | -77.04346 | 12066 ft | 298 kts | 240° |
| 2026-05-05 19:17 | 39.75897 | -77.06631 | 11671 ft | 296 kts | 240° |
| 2026-05-05 19:17 | 39.74824 | -77.08905 | 11272 ft | 294 kts | 240° |
| 2026-05-05 19:17 | 39.73759 | -77.11162 | 10894 ft | 292 kts | 239° |
| 2026-05-05 19:18 | 39.72696 | -77.13414 | 10520 ft | 291 kts | 239° |
| 2026-05-05 19:18 | 39.71653 | -77.15619 | 10392 ft | 282 kts | 239° |
| 2026-05-05 19:18 | 39.70648 | -77.17742 | 10241 ft | 267 kts | 239° |
| 2026-05-05 19:18 | 39.69718 | -77.19707 | 10123 ft | 247 kts | 239° |
| 2026-05-05 19:19 | 39.68832 | -77.21575 | 10023 ft | 241 kts | 239° |
| 2026-05-05 19:19 | 39.67823 | -77.23340 | 9941 ft | 247 kts | 227° |
| 2026-05-05 19:19 | 39.66567 | -77.24879 | 9826 ft | 249 kts | 224° |
| 2026-05-05 19:19 | 39.65273 | -77.26373 | 9705 ft | 250 kts | 224° |
| 2026-05-05 19:20 | 39.63980 | -77.27874 | 9581 ft | 249 kts | 224° |
| 2026-05-05 19:20 | 39.62695 | -77.29384 | 9465 ft | 249 kts | 224° |
| 2026-05-05 19:20 | 39.61418 | -77.30903 | 9346 ft | 249 kts | 224° |
| 2026-05-05 19:20 | 39.60146 | -77.32423 | 9228 ft | 248 kts | 224° |
| 2026-05-05 19:21 | 39.58881 | -77.33938 | 9114 ft | 247 kts | 224° |
| 2026-05-05 19:21 | 39.57618 | -77.35447 | 8985 ft | 247 kts | 224° |
| 2026-05-05 19:21 | 39.56192 | -77.36666 | 8715 ft | 250 kts | 203° |
| 2026-05-05 19:21 | 39.54473 | -77.37145 | 8542 ft | 256 kts | 193° |
| 2026-05-05 19:22 | 39.52698 | -77.37462 | 8310 ft | 259 kts | 192° |
| 2026-05-05 19:22 | 39.50913 | -77.37774 | 8062 ft | 257 kts | 192° |
| 2026-05-05 19:22 | 39.49151 | -77.38080 | 7827 ft | 254 kts | 192° |
| 2026-05-05 19:22 | 39.47415 | -77.38385 | 7591 ft | 249 kts | 192° |
| 2026-05-05 19:23 | 39.45708 | -77.38685 | 7359 ft | 246 kts | 192° |
| 2026-05-05 19:23 | 39.44025 | -77.38983 | 7135 ft | 243 kts | 191° |
| 2026-05-05 19:23 | 39.42355 | -77.39280 | 6909 ft | 242 kts | 192° |
| 2026-05-05 19:23 | 39.40682 | -77.39580 | 6701 ft | 244 kts | 191° |
| 2026-05-05 19:24 | 39.38990 | -77.39883 | 6464 ft | 247 kts | 191° |
| 2026-05-05 19:24 | 39.37288 | -77.40187 | 6260 ft | 247 kts | 191° |
| 2026-05-05 19:24 | 39.35584 | -77.40492 | 6012 ft | 247 kts | 191° |
| 2026-05-05 19:24 | 39.33883 | -77.40798 | 5782 ft | 246 kts | 191° |
| 2026-05-05 19:25 | 39.32199 | -77.41102 | 5549 ft | 243 kts | 190° |
| 2026-05-05 19:25 | 39.30538 | -77.41397 | 5307 ft | 239 kts | 191° |
| 2026-05-05 19:25 | 39.28899 | -77.41691 | 5100 ft | 237 kts | 190° |
| 2026-05-05 19:25 | 39.27269 | -77.41984 | 4875 ft | 236 kts | 191° |
| 2026-05-05 19:26 | 39.25644 | -77.42287 | 4671 ft | 236 kts | 192° |
| 2026-05-05 19:26 | 39.24009 | -77.42594 | 4439 ft | 238 kts | 190° |
| 2026-05-05 19:26 | 39.22358 | -77.42877 | 4247 ft | 240 kts | 190° |
| 2026-05-05 19:26 | 39.20696 | -77.43167 | 3990 ft | 240 kts | 191° |
| 2026-05-05 19:27 | 39.19065 | -77.43450 | 3759 ft | 238 kts | 189° |
| 2026-05-05 19:27 | 39.17449 | -77.43871 | 3558 ft | 231 kts | 198° |
| 2026-05-05 19:27 | 39.15984 | -77.44616 | 3328 ft | 228 kts | 208° |
| 2026-05-05 19:27 | 39.14553 | -77.45373 | 3150 ft | 219 kts | 193° |
| 2026-05-05 19:28 | 39.13093 | -77.45601 | 2929 ft | 200 kts | 190° |
| 2026-05-05 19:28 | 39.11761 | -77.45697 | 2764 ft | 184 kts | 184° |
| 2026-05-05 19:28 | 39.10519 | -77.45679 | 2609 ft | 172 kts | 186° |
| 2026-05-05 19:28 | 39.09388 | -77.45727 | 2463 ft | 155 kts | 185° |
| 2026-05-05 19:29 | 39.08310 | -77.45740 | 2314 ft | 154 kts | 186° |
| 2026-05-05 19:29 | 39.07278 | -77.45817 | 2183 ft | 146 kts | 187° |
| 2026-05-05 19:29 | 39.06300 | -77.45785 | 2063 ft | 134 kts | 185° |
| 2026-05-05 19:29 | 39.05352 | -77.45810 | 1880 ft | 137 kts | 186° |
| 2026-05-05 19:30 | 39.04717 | -77.45821 | 1784 ft | 138 kts | 185° |
| 2026-05-05 19:30 | 39.03417 | -77.45833 | 1540 ft | 141 kts | 187° |
| 2026-05-05 19:30 | 39.02439 | -77.45850 | 1344 ft | 140 kts | 186° |
| 2026-05-05 19:30 | 39.01456 | -77.45864 | 1179 ft | 151 kts | 184° |
| 2026-05-05 19:31 | 39.00410 | -77.45877 | 989 ft | 147 kts | 184° |
| 2026-05-05 19:31 | 38.99417 | -77.45886 | 826 ft | 139 kts | 184° |
| 2026-05-05 19:31 | 38.98459 | -77.45889 | 626 ft | 141 kts | 184° |
| 2026-05-05 19:31 | 38.97801 | -77.45912 | 477 ft | 138 kts | 186° |
| 2026-05-05 19:32 | 38.96584 | -77.45935 | 301 ft | 125 kts | 186° |
| 2026-05-05 19:32 | 38.95781 | -77.45954 | 297 ft | 100 kts | 180° |
| 2026-05-05 19:32 | 38.95296 | -77.45958 | 297 ft | 43 kts | 181° |
| 2026-05-05 19:32 | 38.95023 | -77.45917 | 296 ft | 33 kts | 160° |
| 2026-05-05 19:33 | 38.94876 | -77.45819 | 299 ft | 6 kts | 151° |
| 2026-05-05 19:33 | 38.94838 | -77.45793 | 300 ft | 6 kts | 152° |
| 2026-05-05 19:33 | 38.94798 | -77.45764 | 301 ft | 9 kts | 147° |
| 2026-05-05 19:33 | 38.94756 | -77.45641 | 302 ft | 20 kts | 105° |
| 2026-05-05 19:34 | 38.94736 | -77.45535 | 298 ft | 13 kts | 94° |
| 2026-05-05 19:34 | 38.94734 | -77.45425 | 297 ft | 7 kts | 91° |
| 2026-05-05 19:34 | 38.94732 | -77.45365 | 297 ft | 7 kts | 91° |
| 2026-05-05 19:35 | 38.94733 | -77.45242 | 297 ft | 8 kts | 89° |
| 2026-05-05 19:35 | 38.94733 | -77.45135 | 297 ft | 15 kts | 90° |
| 2026-05-05 19:35 | 38.94731 | -77.45004 | 297 ft | 15 kts | 91° |
| 2026-05-05 19:35 | 38.94729 | -77.44874 | 297 ft | 15 kts | 91° |
| 2026-05-05 19:36 | 38.94739 | -77.44780 | 301 ft | 10 kts | 47° |
| 2026-05-05 19:36 | 38.94792 | -77.44749 | 301 ft | 4 kts | 15° |
| 2026-05-05 19:36 | 38.94803 | -77.44746 | 299 ft | 2 kts | 14° |
| 2026-05-05 19:36 | 38.94815 | -77.44742 | 299 ft | 1 kts | 13° |
| 2026-05-05 19:37 | 38.94818 | -77.44741 | 300 ft | 0 kts | 13° |